Observation data for Goodnight on 03/24/2019      Previous  Date       Current Mesonet Observations  Soil Data  Daily Summary Page  Observations in Plain Language
KGO1 240500Z 18007KT 10/05 A2999 RMK A01 T00990050  RH  072%=      5-min Rain = 0
KGO1 240501Z 18008KT 10/05 A2999 RMK A01 T00980049  RH  072%=      5-min Rain = 0
KGO1 240502Z 18008KT 10/05 A2999 RMK A01 T00970049  RH  072%=      5-min Rain = 0
KGO1 240503Z 18007KT 10/05 A2999 RMK A01 T00970051  RH  073%=      5-min Rain = 0
KGO1 240504Z 18006KT 10/05 A2999 RMK A01 T00970051  RH  073%=      5-min Rain = 0
KGO1 240505Z 17006KT 10/05 A2999 RMK A01 T00960049  RH  072%=      5-min Rain = 0
KGO1 240506Z 17007KT 10/05 A2999 RMK A01 T00970047  RH  071%=      5-min Rain = 0
KGO1 240507Z 18007KT 10/05 A2999 RMK A01 T00980048  RH  071%=      5-min Rain = 0
KGO1 240508Z 18007KT 10/05 A2999 RMK A01 T00990049  RH  071%=      5-min Rain = 0
KGO1 240509Z 18008KT 10/05 A2999 RMK A01 T00980048  RH  071%=      5-min Rain = 0
KGO1 240510Z 17007KT 10/05 A2999 RMK A01 T00970047  RH  071%=      5-min Rain = 0
KGO1 240511Z 17007KT 10/05 A2999 RMK A01 T00980047  RH  071%=      5-min Rain = 0
KGO1 240512Z 17007KT 10/05 A2999 RMK A01 T00980048  RH  071%=      5-min Rain = 0
KGO1 240513Z 17007KT 10/05 A2999 RMK A01 T00990049  RH  071%=      5-min Rain = 0
KGO1 240514Z 17007KT 10/05 A2999 RMK A01 T00980050  RH  072%=      5-min Rain = 0
KGO1 240515Z 17006KT 10/05 A2999 RMK A01 T00980049  RH  072%=      5-min Rain = 0
KGO1 240516Z 17006KT 10/05 A2999 RMK A01 T00980050  RH  072%=      5-min Rain = 0
KGO1 240517Z 17006KT 10/05 A2998 RMK A01 T00980050  RH  072%=      5-min Rain = 0
KGO1 240518Z 18007KT 10/05 A2998 RMK A01 T00980050  RH  072%=      5-min Rain = 0
KGO1 240519Z 18006KT 10/05 A2998 RMK A01 T00970050  RH  073%=      5-min Rain = 0
KGO1 240520Z 17006KT 10/05 A2998 RMK A01 T00970050  RH  072%=      5-min Rain = 0
KGO1 240521Z 17007KT 10/05 A2998 RMK A01 T00970047  RH  071%=      5-min Rain = 0
KGO1 240522Z 17007KT 10/05 A2998 RMK A01 T00980047  RH  071%=      5-min Rain = 0
KGO1 240523Z 17006KT 10/05 A2998 RMK A01 T00980047  RH  070%=      5-min Rain = 0
KGO1 240524Z 16006KT 10/05 A2998 RMK A01 T00990046  RH  070%=      5-min Rain = 0
KGO1 240525Z 16006KT 10/05 A2998 RMK A01 T00990045  RH  069%=      5-min Rain = 0
KGO1 240526Z 16006KT 10/05 A2998 RMK A01 T01000045  RH  068%=      5-min Rain = 0
KGO1 240527Z 17005KT 10/05 A2999 RMK A01 T01000047  RH  069%=      5-min Rain = 0
KGO1 240528Z 17005KT 10/05 A2999 RMK A01 T00990049  RH  071%=      5-min Rain = 0
KGO1 240529Z 17005KT 10/05 A2999 RMK A01 T00980049  RH  072%=      5-min Rain = 0
KGO1 240530Z 17005KT 10/05 A2999 RMK A01 T00970047  RH  071%=      5-min Rain = 0
KGO1 240531Z 17005KT 10/05 A2999 RMK A01 T00980046  RH  070%=      5-min Rain = 0
KGO1 240532Z 17006KT 10/04 A2999 RMK A01 T00980044  RH  069%=      5-min Rain = 0
KGO1 240533Z 17005KT 10/05 A2999 RMK A01 T00980047  RH  070%=      5-min Rain = 0
KGO1 240534Z 17005KT 10/05 A2999 RMK A01 T00980046  RH  070%=      5-min Rain = 0
KGO1 240535Z 17005KT 10/04 A2999 RMK A01 T00980043  RH  069%=      5-min Rain = 0
KGO1 240536Z 17005KT 10/05 A2999 RMK A01 T00980045  RH  069%=      5-min Rain = 0
KGO1 240537Z 16005KT 10/05 A2999 RMK A01 T00980046  RH  070%=      5-min Rain = 0
KGO1 240538Z 16004KT 10/05 A2998 RMK A01 T00980047  RH  071%=      5-min Rain = 0
KGO1 240539Z 16004KT 10/05 A2998 RMK A01 T00960048  RH  072%=      5-min Rain = 0
KGO1 240540Z 16003KT 09/05 A2998 RMK A01 T00940045  RH  072%=      5-min Rain = 0
KGO1 240541Z 16003KT 09/04 A2998 RMK A01 T00930044  RH  071%=      5-min Rain = 0
KGO1 240542Z 16003KT 09/04 A2998 RMK A01 T00940043  RH  071%=      5-min Rain = 0
KGO1 240543Z 16003KT 09/04 A2998 RMK A01 T00940043  RH  070%=      5-min Rain = 0
KGO1 240544Z 16004KT 10/04 A2998 RMK A01 T00950043  RH  070%=      5-min Rain = 0
KGO1 240545Z 16003KT 10/04 A2998 RMK A01 T00950044  RH  070%=      5-min Rain = 0
KGO1 240546Z 16004KT 10/04 A2998 RMK A01 T00960044  RH  070%=      5-min Rain = 0
KGO1 240547Z 17004KT 10/04 A2998 RMK A01 T00960043  RH  069%=      5-min Rain = 0
KGO1 240548Z 17005KT 10/04 A2998 RMK A01 T00970042  RH  069%=      5-min Rain = 0
KGO1 240549Z 16005KT 10/04 A2998 RMK A01 T00980040  RH  067%=      5-min Rain = 0
KGO1 240550Z 16005KT 10/04 A2998 RMK A01 T01000039  RH  066%=      5-min Rain = 0
KGO1 240551Z 16006KT 10/04 A2998 RMK A01 T01030039  RH  065%=      5-min Rain = 0
KGO1 240552Z 16006KT 10/04 A2998 RMK A01 T01040037  RH  063%=      5-min Rain = 0
KGO1 240553Z 16006KT 11/04 A2998 RMK A01 T01060036  RH  062%=      5-min Rain = 0
KGO1 240554Z 16006KT 11/04 A2998 RMK A01 T01080036  RH  061%=      5-min Rain = 0
KGO1 240555Z 17006KT 11/04 A2998 RMK A01 T01090035  RH  060%=      5-min Rain = 0
KGO1 240556Z 17006KT 11/04 A2998 RMK A01 T01100037  RH  061%=      5-min Rain = 0
KGO1 240557Z 17006KT 11/04 A2998 RMK A01 T01090037  RH  061%=      5-min Rain = 0
KGO1 240558Z 17006KT 11/04 A2998 RMK A01 T01090035  RH  060%=      5-min Rain = 0
KGO1 240559Z 17006KT 11/04 A2998 RMK A01 T01090035  RH  060%=      5-min Rain = 0
KGO1 240600Z 17006KT 11/03 A2998 RMK A01 T01090034  RH  060%=      5-min Rain = 0
KGO1 240601Z 17006KT 11/03 A2998 RMK A01 T01100033  RH  059%=      5-min Rain = 0
KGO1 240602Z 17007KT 11/03 A2998 RMK A01 T01110032  RH  058%=      5-min Rain = 0
KGO1 240603Z 17007KT 11/03 A2998 RMK A01 T01130032  RH  057%=      5-min Rain = 0
KGO1 240604Z 17007KT 11/03 A2998 RMK A01 T01130033  RH  058%=      5-min Rain = 0
KGO1 240605Z 17007KT 11/03 A2998 RMK A01 T01120034  RH  059%=      5-min Rain = 0
KGO1 240606Z 17007KT 11/04 A2998 RMK A01 T01090035  RH  060%=      5-min Rain = 0
KGO1 240607Z 17006KT 11/04 A2998 RMK A01 T01060037  RH  062%=      5-min Rain = 0
KGO1 240608Z 18006KT 10/04 A2998 RMK A01 T01030039  RH  065%=      5-min Rain = 0
KGO1 240609Z 18007KT 10/04 A2998 RMK A01 T01020038  RH  065%=      5-min Rain = 0
KGO1 240610Z 18007KT 10/04 A2998 RMK A01 T01010037  RH  064%=      5-min Rain = 0
KGO1 240611Z 18007KT 10/04 A2998 RMK A01 T01020037  RH  064%=      5-min Rain = 0
KGO1 240612Z 17008KT 10/04 A2998 RMK A01 T01020038  RH  064%=      5-min Rain = 0
KGO1 240613Z 17008KT 10/04 A2998 RMK A01 T01010039  RH  065%=      5-min Rain = 0
KGO1 240614Z 17007KT 10/04 A2998 RMK A01 T01000039  RH  066%=      5-min Rain = 0
KGO1 240615Z 17007KT 10/04 A2998 RMK A01 T00980041  RH  067%=      5-min Rain = 0
KGO1 240616Z 17007KT 10/04 A2998 RMK A01 T00970041  RH  068%=      5-min Rain = 0
KGO1 240617Z 17007KT 10/04 A2998 RMK A01 T00960041  RH  069%=      5-min Rain = 0
KGO1 240618Z 18007KT 10/04 A2998 RMK A01 T00950041  RH  069%=      5-min Rain = 0
KGO1 240619Z 18008KT 09/04 A2998 RMK A01 T00940041  RH  070%=      5-min Rain = 0
KGO1 240620Z 18008KT 09/04 A2998 RMK A01 T00930041  RH  070%=      5-min Rain = 0
KGO1 240621Z 18008KT 09/04 A2998 RMK A01 T00940041  RH  070%=      5-min Rain = 0
KGO1 240622Z 18007KT 09/04 A2998 RMK A01 T00940041  RH  069%=      5-min Rain = 0
KGO1 240623Z 18007KT 09/04 A2998 RMK A01 T00940041  RH  070%=      5-min Rain = 0
KGO1 240624Z 18006KT 09/04 A2998 RMK A01 T00940043  RH  070%=      5-min Rain = 0
KGO1 240625Z 21005KT 09/05 A2998 RMK A01 T00930047  RH  073%=      5-min Rain = 0
KGO1 240626Z 22005KT 09/04 A2998 RMK A01 T00900044  RH  073%=      5-min Rain = 0
KGO1 240627Z 20007KT 09/04 A2998 RMK A01 T00920039  RH  069%=      5-min Rain = 0
KGO1 240628Z 19007KT 10/04 A2998 RMK A01 T00970038  RH  067%=      5-min Rain = 0
KGO1 240629Z 17008KT 10/04 A2998 RMK A01 T00990039  RH  066%=      5-min Rain = 0
KGO1 240630Z 16009KT 10/04 A2997 RMK A01 T01000039  RH  066%=      5-min Rain = 0
KGO1 240631Z 16008KT 10/04 A2997 RMK A01 T01000039  RH  066%=      5-min Rain = 0
KGO1 240632Z 16009KT 10/04 A2997 RMK A01 T00990040  RH  066%=      5-min Rain = 0
KGO1 240633Z 16008KT 10/04 A2997 RMK A01 T00980040  RH  067%=      5-min Rain = 0
KGO1 240634Z 16008KT 10/04 A2997 RMK A01 T00960041  RH  068%=      5-min Rain = 0
KGO1 240635Z 19006KT 09/04 A2998 RMK A01 T00940042  RH  070%=      5-min Rain = 0
KGO1 240636Z 23006KT 09/05 A2998 RMK A01 T00910046  RH  073%=      5-min Rain = 0
KGO1 240637Z 22007KT 09/04 A2998 RMK A01 T00890043  RH  072%=      5-min Rain = 0
KGO1 240638Z 22007KT 09/04 A2998 RMK A01 T00940039  RH  069%=      5-min Rain = 0
KGO1 240639Z 21007KT 10/04 A2998 RMK A01 T00980038  RH  066%=      5-min Rain = 0
KGO1 240640Z 19007KT 10/04 A2998 RMK A01 T01020037  RH  064%=      5-min Rain = 0
KGO1 240641Z 19007KT 10/04 A2998 RMK A01 T01030038  RH  064%=      5-min Rain = 0
KGO1 240642Z 19007KT 10/04 A2998 RMK A01 T01040038  RH  064%=      5-min Rain = 0
KGO1 240643Z 18007KT 10/04 A2998 RMK A01 T01040038  RH  064%=      5-min Rain = 0
KGO1 240644Z 18007KT 10/04 A2997 RMK A01 T01030039  RH  064%=      5-min Rain = 0
KGO1 240645Z 18007KT 10/04 A2997 RMK A01 T01020039  RH  065%=      5-min Rain = 0
KGO1 240646Z 19007KT 10/04 A2997 RMK A01 T01000039  RH  066%=      5-min Rain = 0
KGO1 240647Z 19006KT 10/04 A2997 RMK A01 T00980041  RH  068%=      5-min Rain = 0
KGO1 240648Z 19006KT 10/04 A2997 RMK A01 T00950041  RH  069%=      5-min Rain = 0
KGO1 240649Z 19007KT 09/04 A2997 RMK A01 T00930040  RH  069%=      5-min Rain = 0
KGO1 240650Z 20007KT 09/04 A2997 RMK A01 T00920040  RH  070%=      5-min Rain = 0
KGO1 240651Z 19007KT 09/04 A2997 RMK A01 T00920041  RH  071%=      5-min Rain = 0
KGO1 240652Z 19008KT 09/04 A2997 RMK A01 T00910040  RH  070%=      5-min Rain = 0
KGO1 240653Z 19008KT 09/04 A2997 RMK A01 T00920039  RH  070%=      5-min Rain = 0
KGO1 240654Z 19008KT 09/04 A2997 RMK A01 T00930039  RH  069%=      5-min Rain = 0
KGO1 240655Z 19008KT 09/04 A2997 RMK A01 T00930040  RH  070%=      5-min Rain = 0
KGO1 240656Z 18009KT 09/04 A2997 RMK A01 T00920041  RH  070%=      5-min Rain = 0
KGO1 240657Z 18009KT 09/04 A2997 RMK A01 T00910041  RH  071%=      5-min Rain = 0
KGO1 240658Z 19008KT 09/04 A2997 RMK A01 T00890042  RH  072%=      5-min Rain = 0
KGO1 240659Z 19008KT 09/04 A2997 RMK A01 T00880042  RH  073%=      5-min Rain = 0
KGO1 240700Z 19008KT 09/04 A2997 RMK A01 T00870042  RH  073%=      5-min Rain = 0
KGO1 240701Z 20008KT 09/04 A2997 RMK A01 T00860042  RH  074%=      5-min Rain = 0
KGO1 240702Z 20008KT 09/04 A2997 RMK A01 T00870041  RH  073%=      5-min Rain = 0
KGO1 240703Z 19008KT 09/04 A2997 RMK A01 T00880040  RH  072%=      5-min Rain = 0
KGO1 240704Z 19008KT 09/04 A2997 RMK A01 T00890040  RH  071%=      5-min Rain = 0
KGO1 240705Z 18008KT 09/04 A2997 RMK A01 T00910040  RH  070%=      5-min Rain = 0
KGO1 240706Z 18008KT 09/04 A2997 RMK A01 T00920040  RH  070%=      5-min Rain = 0
KGO1 240707Z 19007KT 09/04 A2997 RMK A01 T00920041  RH  070%=      5-min Rain = 0
KGO1 240708Z 19008KT 09/04 A2997 RMK A01 T00910042  RH  071%=      5-min Rain = 0
KGO1 240709Z 18008KT 09/04 A2997 RMK A01 T00900040  RH  071%=      5-min Rain = 0
KGO1 240710Z 17008KT 09/04 A2997 RMK A01 T00910037  RH  069%=      5-min Rain = 0
KGO1 240711Z 17007KT 09/04 A2997 RMK A01 T00940037  RH  068%=      5-min Rain = 0
KGO1 240712Z 18006KT 10/04 A2998 RMK A01 T00950038  RH  068%=      5-min Rain = 0
KGO1 240713Z 21006KT 10/04 A2998 RMK A01 T00950039  RH  068%=      5-min Rain = 0
KGO1 240714Z 20007KT 09/04 A2998 RMK A01 T00940038  RH  068%=      5-min Rain = 0
KGO1 240715Z 19006KT 10/04 A2998 RMK A01 T00960036  RH  066%=      5-min Rain = 0
KGO1 240716Z 20008KT 10/03 A2998 RMK A01 T01000034  RH  064%=      5-min Rain = 0
KGO1 240717Z 19008KT 10/04 A2998 RMK A01 T01040036  RH  063%=      5-min Rain = 0
KGO1 240718Z 18008KT 10/04 A2998 RMK A01 T01040036  RH  063%=      5-min Rain = 0
KGO1 240719Z 17008KT 10/04 A2998 RMK A01 T01030037  RH  063%=      5-min Rain = 0
KGO1 240720Z 17006KT 10/04 A2998 RMK A01 T01030036  RH  063%=      5-min Rain = 0
KGO1 240721Z 17007KT 10/04 A2998 RMK A01 T01040036  RH  063%=      5-min Rain = 0
KGO1 240722Z 16008KT 10/04 A2998 RMK A01 T01030039  RH  065%=      5-min Rain = 0
KGO1 240723Z 15009KT 10/04 A2998 RMK A01 T01000035  RH  064%=      5-min Rain = 0
KGO1 240724Z 14006KT 11/03 A2998 RMK A01 T01050030  RH  060%=      5-min Rain = 0
KGO1 240725Z 14005KT 11/03 A2998 RMK A01 T01110033  RH  058%=      5-min Rain = 0
KGO1 240726Z 15005KT 11/04 A2998 RMK A01 T01120036  RH  059%=      5-min Rain = 0
KGO1 240727Z 16003KT 11/04 A2998 RMK A01 T01080036  RH  061%=      5-min Rain = 0
KGO1 240728Z 22004KT 11/04 A2998 RMK A01 T01050037  RH  063%=      5-min Rain = 0
KGO1 240729Z 22005KT 10/04 A2998 RMK A01 T01040035  RH  062%=      5-min Rain = 0
KGO1 240730Z 18003KT 10/04 A2998 RMK A01 T01040036  RH  063%=      5-min Rain = 0
KGO1 240731Z 18003KT 10/03 A2998 RMK A01 T01040034  RH  062%=      5-min Rain = 0
KGO1 240732Z 18003KT 10/03 A2998 RMK A01 T01040034  RH  062%=      5-min Rain = 0
KGO1 240733Z 17004KT 11/03 A2998 RMK A01 T01050033  RH  061%=      5-min Rain = 0
KGO1 240734Z 17004KT 11/03 A2998 RMK A01 T01060033  RH  061%=      5-min Rain = 0
KGO1 240735Z 17003KT 11/03 A2998 RMK A01 T01060033  RH  061%=      5-min Rain = 0
KGO1 240736Z 16005KT 11/03 A2998 RMK A01 T01060034  RH  061%=      5-min Rain = 0
KGO1 240737Z 17005KT 11/03 A2998 RMK A01 T01060034  RH  061%=      5-min Rain = 0
KGO1 240738Z 17004KT 11/03 A2997 RMK A01 T01050034  RH  061%=      5-min Rain = 0
KGO1 240739Z 16004KT 11/03 A2997 RMK A01 T01050033  RH  061%=      5-min Rain = 0
KGO1 240740Z 17004KT 11/03 A2998 RMK A01 T01060032  RH  060%=      5-min Rain = 0
KGO1 240741Z 17003KT 11/03 A2998 RMK A01 T01060032  RH  060%=      5-min Rain = 0
KGO1 240742Z 18003KT 11/03 A2998 RMK A01 T01070032  RH  060%=      5-min Rain = 0
KGO1 240743Z 18003KT 11/03 A2998 RMK A01 T01070031  RH  060%=      5-min Rain = 0
KGO1 240744Z 20003KT 11/04 A2998 RMK A01 T01060036  RH  062%=      5-min Rain = 0
KGO1 240745Z 18003KT 10/04 A2998 RMK A01 T01020036  RH  064%=      5-min Rain = 0
KGO1 240746Z 17003KT 10/04 A2998 RMK A01 T01000035  RH  064%=      5-min Rain = 0
KGO1 240747Z 19003KT 10/04 A2998 RMK A01 T00980037  RH  065%=      5-min Rain = 0
KGO1 240748Z 18003KT 10/04 A2998 RMK A01 T00970035  RH  065%=      5-min Rain = 0
KGO1 240749Z 18003KT 10/03 A2998 RMK A01 T00990033  RH  064%=      5-min Rain = 0
KGO1 240750Z 18003KT 10/03 A2998 RMK A01 T01010033  RH  063%=      5-min Rain = 0
KGO1 240751Z 18003KT 10/03 A2998 RMK A01 T01010034  RH  063%=      5-min Rain = 0
KGO1 240752Z 19003KT 10/03 A2998 RMK A01 T01010032  RH  062%=      5-min Rain = 0
KGO1 240753Z 21002KT 10/03 A2998 RMK A01 T01010033  RH  062%=      5-min Rain = 0
KGO1 240754Z 22002KT 10/04 A2998 RMK A01 T01000036  RH  064%=      5-min Rain = 0
KGO1 240755Z 23002KT 09/04 A2998 RMK A01 T00940038  RH  068%=      5-min Rain = 0
KGO1 240756Z 25002KT 09/04 A2998 RMK A01 T00900039  RH  071%=      5-min Rain = 0
KGO1 240757Z 20002KT 09/04 A2998 RMK A01 T00880036  RH  070%=      5-min Rain = 0
KGO1 240758Z 22002KT 09/04 A2998 RMK A01 T00900036  RH  069%=      5-min Rain = 0
KGO1 240759Z 22002KT 09/04 A2998 RMK A01 T00900040  RH  071%=      5-min Rain = 0
KGO1 240800Z 23003KT 09/04 A2998 RMK A01 T00890043  RH  073%=      5-min Rain = 0
KGO1 240801Z 22003KT 09/04 A2998 RMK A01 T00850041  RH  074%=      5-min Rain = 0
KGO1 240802Z 22003KT 08/04 A2998 RMK A01 T00840038  RH  072%=      5-min Rain = 0
KGO1 240803Z 22003KT 09/04 A2998 RMK A01 T00850040  RH  073%=      5-min Rain = 0
KGO1 240804Z 20003KT 09/04 A2998 RMK A01 T00850037  RH  072%=      5-min Rain = 0
KGO1 240805Z 22004KT 09/04 A2998 RMK A01 T00870036  RH  070%=      5-min Rain = 0
KGO1 240806Z 24005KT 09/04 A2998 RMK A01 T00890037  RH  069%=      5-min Rain = 0
KGO1 240807Z 24005KT 09/04 A2999 RMK A01 T00880037  RH  071%=      5-min Rain = 0
KGO1 240808Z 25005KT 08/04 A2999 RMK A01 T00830038  RH  073%=      5-min Rain = 0
KGO1 240809Z 26005KT 08/04 A2999 RMK A01 T00790038  RH  075%=      5-min Rain = 0
KGO1 240810Z 26005KT 08/04 A2999 RMK A01 T00770038  RH  076%=      5-min Rain = 0
KGO1 240811Z 26005KT 08/04 A2999 RMK A01 T00760038  RH  077%=      5-min Rain = 0
KGO1 240812Z 26006KT 08/04 A2999 RMK A01 T00760039  RH  077%=      5-min Rain = 0
KGO1 240813Z 27006KT 08/04 A2999 RMK A01 T00760040  RH  078%=      5-min Rain = 0
KGO1 240814Z 27006KT 08/04 A2999 RMK A01 T00750039  RH  078%=      5-min Rain = 0
KGO1 240815Z 27006KT 07/04 A2999 RMK A01 T00730038  RH  079%=      5-min Rain = 0
KGO1 240816Z 28006KT 07/04 A2999 RMK A01 T00720037  RH  079%=      5-min Rain = 0
KGO1 240817Z 29007KT 07/03 A2999 RMK A01 T00720033  RH  076%=      5-min Rain = 0
KGO1 240818Z 29007KT 08/03 A2999 RMK A01 T00760025  RH  070%=      5-min Rain = 0
KGO1 240819Z 29008KT 08/03 A2999 RMK A01 T00780025  RH  069%=      5-min Rain = 0
KGO1 240820Z 29007KT 08/02 A2999 RMK A01 T00790023  RH  068%=      5-min Rain = 0
KGO1 240821Z 29009KT 08/02 A2999 RMK A01 T00800023  RH  067%=      5-min Rain = 0
KGO1 240822Z 30011KT 08/02 A2999 RMK A01 T00810019  RH  065%=      5-min Rain = 0
KGO1 240823Z 29009KT 09/02 A2999 RMK A01 T00850019  RH  063%=      5-min Rain = 0
KGO1 240824Z 30008KT 09/02 A2999 RMK A01 T00870020  RH  063%=      5-min Rain = 0
KGO1 240825Z 30008KT 09/02 A2999 RMK A01 T00870022  RH  064%=      5-min Rain = 0
KGO1 240826Z 30009KT 08/02 A2999 RMK A01 T00840022  RH  065%=      5-min Rain = 0
KGO1 240827Z 30009KT 08/02 A2999 RMK A01 T00840022  RH  065%=      5-min Rain = 0
KGO1 240828Z 30010KT 08/02 A2999 RMK A01 T00840022  RH  065%=      5-min Rain = 0
KGO1 240829Z 30009KT 08/02 A2999 RMK A01 T00840021  RH  065%=      5-min Rain = 0
KGO1 240830Z 31009KT 08/02 A2999 RMK A01 T00830022  RH  066%=      5-min Rain = 0
KGO1 240831Z 31008KT 08/02 A2999 RMK A01 T00820022  RH  066%=      5-min Rain = 0
KGO1 240832Z 31008KT 08/02 A2999 RMK A01 T00820022  RH  066%=      5-min Rain = 0
KGO1 240833Z 31008KT 08/02 A2999 RMK A01 T00820023  RH  066%=      5-min Rain = 0
KGO1 240834Z 31005KT 08/02 A2999 RMK A01 T00810024  RH  067%=      5-min Rain = 0
KGO1 240835Z 30006KT 08/02 A2999 RMK A01 T00800024  RH  068%=      5-min Rain = 0
KGO1 240836Z 31006KT 08/02 A2999 RMK A01 T00790024  RH  068%=      5-min Rain = 0
KGO1 240837Z 30006KT 08/02 A2999 RMK A01 T00770024  RH  069%=      5-min Rain = 0
KGO1 240838Z 30006KT 08/02 A2999 RMK A01 T00760024  RH  070%=      5-min Rain = 0
KGO1 240839Z 30006KT 08/02 A2999 RMK A01 T00750024  RH  070%=      5-min Rain = 0
KGO1 240840Z 29007KT 08/02 A2999 RMK A01 T00750024  RH  070%=      5-min Rain = 0
KGO1 240841Z 30007KT 07/03 A2999 RMK A01 T00740025  RH  071%=      5-min Rain = 0
KGO1 240842Z 30008KT 07/03 A2999 RMK A01 T00730027  RH  072%=      5-min Rain = 0
KGO1 240843Z 30008KT 07/03 A2999 RMK A01 T00710027  RH  074%=      5-min Rain = 0
KGO1 240844Z 30008KT 07/03 A2999 RMK A01 T00700028  RH  074%=      5-min Rain = 0
KGO1 240845Z 30008KT 07/03 A2999 RMK A01 T00700029  RH  075%=      5-min Rain = 0
KGO1 240846Z 30008KT 07/03 A2999 RMK A01 T00700030  RH  076%=      5-min Rain = 0
KGO1 240847Z 32008KT 07/03 A2999 RMK A01 T00700031  RH  076%=      5-min Rain = 0
KGO1 240848Z 34007KT 07/03 A2999 RMK A01 T00690032  RH  077%=      5-min Rain = 0
KGO1 240849Z 01006KT 07/03 A2999 RMK A01 T00680033  RH  078%=      5-min Rain = 0
KGO1 240850Z 01006KT 07/03 A2999 RMK A01 T00680032  RH  078%=      5-min Rain = 0
KGO1 240851Z 36006KT 07/03 A2999 RMK A01 T00690030  RH  076%=      5-min Rain = 0
KGO1 240852Z 35007KT 07/03 A2999 RMK A01 T00700030  RH  076%=      5-min Rain = 0
KGO1 240853Z 34007KT 07/03 A2999 RMK A01 T00700031  RH  076%=      5-min Rain = 0
KGO1 240854Z 34007KT 07/03 A2999 RMK A01 T00700030  RH  075%=      5-min Rain = 0
KGO1 240855Z 34006KT 07/03 A2999 RMK A01 T00700030  RH  076%=      5-min Rain = 0
KGO1 240856Z 33007KT 07/03 A2999 RMK A01 T00680030  RH  076%=      5-min Rain = 0
KGO1 240857Z 33007KT 07/03 A2999 RMK A01 T00670028  RH  076%=      5-min Rain = 0
KGO1 240858Z 34008KT 07/03 A2998 RMK A01 T00660028  RH  076%=      5-min Rain = 0
KGO1 240859Z 33007KT 07/03 A2998 RMK A01 T00660027  RH  076%=      5-min Rain = 0
KGO1 240900Z 33007KT 07/03 A2999 RMK A01 T00660027  RH  076%=      5-min Rain = 0
KGO1 240901Z 33008KT 07/03 A2999 RMK A01 T00660028  RH  076%=      5-min Rain = 0
KGO1 240902Z 33007KT 07/03 A2999 RMK A01 T00660028  RH  077%=      5-min Rain = 0
KGO1 240903Z 33008KT 07/03 A2999 RMK A01 T00660028  RH  077%=      5-min Rain = 0
KGO1 240904Z 32008KT 07/03 A2999 RMK A01 T00650028  RH  077%=      5-min Rain = 0
KGO1 240905Z 32008KT 06/03 A2999 RMK A01 T00630028  RH  078%=      5-min Rain = 0
KGO1 240906Z 31010KT 06/03 A2999 RMK A01 T00610028  RH  079%=      5-min Rain = 0
KGO1 240907Z 31010KT 06/03 A2999 RMK A01 T00610029  RH  080%=      5-min Rain = 0
KGO1 240908Z 30011KT 06/03 A2999 RMK A01 T00620030  RH  080%=      5-min Rain = 0
KGO1 240909Z 30013KT 06/03 A30 RMK A01 T00620031  RH  081%=      5-min Rain = 0
KGO1 240910Z 30012KT 06/03 A30 RMK A01 T00610031  RH  081%=      5-min Rain = 0
KGO1 240911Z 30012KT 06/03 A30 RMK A01 T00610032  RH  081%=      5-min Rain = 0
KGO1 240912Z 31011KT 06/03 A2999 RMK A01 T00610031  RH  081%=      5-min Rain = 0
KGO1 240913Z 31012KT 06/03 A2999 RMK A01 T00620031  RH  081%=      5-min Rain = 0
KGO1 240914Z 32014KT 06/03 A2999 RMK A01 T00640032  RH  080%=      5-min Rain = 0
KGO1 240915Z 32013KT 07/03 A2999 RMK A01 T00670032  RH  078%=      5-min Rain = 0
KGO1 240916Z 33014KT 07/03 A2999 RMK A01 T00680032  RH  078%=      5-min Rain = 0
KGO1 240917Z 33015KT 07/03 A2999 RMK A01 T00690032  RH  077%=      5-min Rain = 0
KGO1 240918Z 33013KT 07/03 A2999 RMK A01 T00690031  RH  077%=      5-min Rain = 0
KGO1 240919Z 33014KT 07/03 A2999 RMK A01 T00670031  RH  078%=      5-min Rain = 0
KGO1 240920Z 33014KT 07/03 A2999 RMK A01 T00660031  RH  079%=      5-min Rain = 0
KGO1 240921Z 33014KT 06/03 A2999 RMK A01 T00640031  RH  079%=      5-min Rain = 0
KGO1 240922Z 33014KT 06/03 A2999 RMK A01 T00630031  RH  080%=      5-min Rain = 0
KGO1 240923Z 33014KT 06/03 A2999 RMK A01 T00620031  RH  081%=      5-min Rain = 0
KGO1 240924Z 33016KT 06/03 A2999 RMK A01 T00610031  RH  081%=      5-min Rain = 0
KGO1 240925Z 33015KT 06/03 A30 RMK A01 T00610031  RH  082%=      5-min Rain = 0
KGO1 240926Z 33015KT 06/03 A30 RMK A01 T00590031  RH  082%=      5-min Rain = 0
KGO1 240927Z 33014KT 06/03 A30 RMK A01 T00590032  RH  083%=      5-min Rain = 0
KGO1 240928Z 33015KT 06/03 A30 RMK A01 T00580032  RH  083%=      5-min Rain = 0
KGO1 240929Z 33016KT 06/03 A30 RMK A01 T00580032  RH  083%=      5-min Rain = 0
KGO1 240930Z 33015KT 06/03 A30 RMK A01 T00580032  RH  084%=      5-min Rain = 0
KGO1 240931Z 33017KT 06/03 A30 RMK A01 T00580032  RH  084%=      5-min Rain = 0
KGO1 240932Z 34015KT 06/03 A30 RMK A01 T00570032  RH  084%=      5-min Rain = 0
KGO1 240933Z 33015KT 06/03 A30 RMK A01 T00570033  RH  084%=      5-min Rain = 0
KGO1 240934Z 33016KT 06/03 A30 RMK A01 T00570033  RH  084%=      5-min Rain = 0
KGO1 240935Z 34016KT 06/03 A30 RMK A01 T00580034  RH  085%=      5-min Rain = 0
KGO1 240936Z 34015KT 06/04 A30 RMK A01 T00590036  RH  085%=      5-min Rain = 0
KGO1 240937Z 34015G20KT 06/04 A30 RMK A01 T00590035  RH  085%=      5-min Rain = 0
KGO1 240938Z 34014KT 06/04 A30 RMK A01 T00600036  RH  085%=      5-min Rain = 0
KGO1 240939Z 34017KT 06/04 A30 RMK A01 T00600036  RH  085%=      5-min Rain = 0
KGO1 240940Z 34015KT 06/04 A30 RMK A01 T00600037  RH  085%=      5-min Rain = 0
KGO1 240941Z 34016KT 06/04 A30 RMK A01 T00610038  RH  085%=      5-min Rain = 0
KGO1 240942Z 34014KT 06/04 A3001 RMK A01 T00620039  RH  085%=      5-min Rain = 0
KGO1 240943Z 34015KT 06/04 A3001 RMK A01 T00620039  RH  085%=      5-min Rain = 0
KGO1 240944Z 34015KT 06/04 A3001 RMK A01 T00620039  RH  085%=      5-min Rain = 0
KGO1 240945Z 34013KT 06/04 A3001 RMK A01 T00620039  RH  085%=      5-min Rain = 0
KGO1 240946Z 34014KT 06/04 A3001 RMK A01 T00620039  RH  086%=      5-min Rain = 0
KGO1 240947Z 34014KT 06/04 A3001 RMK A01 T00620040  RH  086%=      5-min Rain = 0
KGO1 240948Z 34013KT 06/04 A3001 RMK A01 T00620040  RH  086%=      5-min Rain = 0
KGO1 240949Z 34012KT 06/04 A3001 RMK A01 T00620040  RH  086%=      5-min Rain = 0
KGO1 240950Z 34014KT 06/04 A3001 RMK A01 T00620040  RH  086%=      5-min Rain = 0
KGO1 240951Z 34013KT 06/04 A3001 RMK A01 T00620040  RH  086%=      5-min Rain = 0
KGO1 240952Z 35012KT 06/04 A3001 RMK A01 T00620040  RH  086%=      5-min Rain = 0
KGO1 240953Z 34012KT 06/04 A3001 RMK A01 T00610039  RH  086%=      5-min Rain = 0
KGO1 240954Z 34012KT 06/04 A3001 RMK A01 T00610039  RH  086%=      5-min Rain = 0
KGO1 240955Z 34012KT 06/04 A3001 RMK A01 T00610039  RH  086%=      5-min Rain = 0
KGO1 240956Z 34011KT 06/04 A3001 RMK A01 T00610038  RH  086%=      5-min Rain = 0
KGO1 240957Z 34011KT 06/04 A3001 RMK A01 T00610038  RH  086%=      5-min Rain = 0
KGO1 240958Z 34010KT 06/04 A3001 RMK A01 T00610039  RH  086%=      5-min Rain = 0
KGO1 240959Z 34011KT 06/04 A3002 RMK A01 T00610039  RH  086%=      5-min Rain = 0
KGO1 241000Z 34010KT 06/04 A3002 RMK A01 T00600038  RH  086%=      5-min Rain = 0
KGO1 241001Z 34011KT 06/04 A3001 RMK A01 T00600038  RH  086%=      5-min Rain = 0
KGO1 241002Z 35010KT 06/04 A3001 RMK A01 T00600038  RH  086%=      5-min Rain = 0
KGO1 241003Z 35010KT 06/04 A3001 RMK A01 T00600039  RH  086%=      5-min Rain = 0
KGO1 241004Z 35010KT 06/04 A3001 RMK A01 T00590039  RH  087%=      5-min Rain = 0
KGO1 241005Z 34011KT 06/04 A3001 RMK A01 T00590039  RH  087%=      5-min Rain = 0
KGO1 241006Z 34011KT 06/04 A3002 RMK A01 T00590039  RH  086%=      5-min Rain = 0
KGO1 241007Z 34012KT 06/04 A3002 RMK A01 T00590038  RH  086%=      5-min Rain = 0
KGO1 241008Z 34011KT 06/04 A3002 RMK A01 T00590039  RH  087%=      5-min Rain = 0
KGO1 241009Z 35011KT 06/04 A3002 RMK A01 T00590039  RH  087%=      5-min Rain = 0
KGO1 241010Z 35012KT 06/04 A3002 RMK A01 T00590039  RH  087%=      5-min Rain = 0
KGO1 241011Z 34010KT 06/04 A3002 RMK A01 T00590039  RH  087%=      5-min Rain = 0
KGO1 241012Z 34012KT 06/04 A3002 RMK A01 T00590039  RH  087%=      5-min Rain = 0
KGO1 241013Z 34012KT 06/04 A3002 RMK A01 T00590039  RH  087%=      5-min Rain = 0
KGO1 241014Z 35011KT 06/04 A3002 RMK A01 T00580038  RH  087%=      5-min Rain = 0
KGO1 241015Z 35013KT 06/04 A3002 RMK A01 T00580039  RH  087%=      5-min Rain = 0
KGO1 241016Z 34013KT 06/04 A3002 RMK A01 T00580039  RH  087%=      5-min Rain = 0
KGO1 241017Z 34013KT 06/04 A3002 RMK A01 T00580038  RH  087%=      5-min Rain = 0
KGO1 241018Z 35012KT 06/04 A3002 RMK A01 T00590039  RH  087%=      5-min Rain = 0
KGO1 241019Z 35013KT 06/04 A3002 RMK A01 T00580039  RH  087%=      5-min Rain = 0
KGO1 241020Z 34012KT 06/04 A3002 RMK A01 T00580039  RH  087%=      5-min Rain = 0
KGO1 241021Z 34013KT 06/04 A3002 RMK A01 T00580038  RH  087%=      5-min Rain = 0
KGO1 241022Z 34013KT 06/04 A3002 RMK A01 T00580038  RH  087%=      5-min Rain = 0
KGO1 241023Z 34014KT 06/04 A3002 RMK A01 T00570038  RH  087%=      5-min Rain = 0
KGO1 241024Z 34013KT 06/04 A3002 RMK A01 T00580038  RH  087%=      5-min Rain = 0
KGO1 241025Z 34013KT 06/04 A3002 RMK A01 T00580038  RH  087%=      5-min Rain = 0
KGO1 241026Z 34013KT 06/04 A3002 RMK A01 T00580038  RH  087%=      5-min Rain = 0
KGO1 241027Z 34014KT 06/04 A3002 RMK A01 T00580038  RH  087%=      5-min Rain = 0
KGO1 241028Z 33014KT 06/04 A3002 RMK A01 T00570038  RH  087%=      5-min Rain = 0
KGO1 241029Z 33014KT 06/04 A3002 RMK A01 T00570037  RH  087%=      5-min Rain = 0
KGO1 241030Z 34013KT 06/04 A3002 RMK A01 T00570037  RH  087%=      5-min Rain = 0
KGO1 241031Z 34014KT 06/04 A3002 RMK A01 T00570038  RH  087%=      5-min Rain = 0
KGO1 241032Z 34015KT 06/04 A3002 RMK A01 T00570037  RH  087%=      5-min Rain = 0
KGO1 241033Z 34014KT 06/04 A3002 RMK A01 T00570037  RH  088%=      5-min Rain = 0
KGO1 241034Z 34013KT 06/04 A3002 RMK A01 T00560037  RH  088%=      5-min Rain = 0
KGO1 241035Z 33013KT 06/04 A3002 RMK A01 T00560037  RH  087%=      5-min Rain = 0
KGO1 241036Z 34013KT 06/04 A3002 RMK A01 T00560037  RH  088%=      5-min Rain = 0
KGO1 241037Z 34014KT 06/04 A3002 RMK A01 T00550037  RH  088%=      5-min Rain = 0
KGO1 241038Z 34013KT 06/04 A3002 RMK A01 T00560037  RH  088%=      5-min Rain = 0
KGO1 241039Z 34013KT 06/04 A3003 RMK A01 T00550037  RH  088%=      5-min Rain = 0
KGO1 241040Z 33011KT 06/04 A3003 RMK A01 T00550037  RH  088%=      5-min Rain = 0
KGO1 241041Z 34012KT 06/04 A3003 RMK A01 T00550037  RH  088%=      5-min Rain = 0
KGO1 241042Z 34012KT 06/04 A3003 RMK A01 T00550036  RH  088%=      5-min Rain = 0
KGO1 241043Z 34012KT 05/04 A3003 RMK A01 T00540036  RH  088%=      5-min Rain = 0
KGO1 241044Z 34013KT 05/04 A3003 RMK A01 T00540036  RH  088%=      5-min Rain = 0
KGO1 241045Z 34012KT 05/04 A3003 RMK A01 T00540036  RH  088%=      5-min Rain = 0
KGO1 241046Z 34011KT 06/04 A3003 RMK A01 T00550036  RH  088%=      5-min Rain = 0
KGO1 241047Z 34012KT 06/04 A3003 RMK A01 T00550036  RH  088%=      5-min Rain = 0
KGO1 241048Z 34012KT 06/04 A3003 RMK A01 T00550036  RH  088%=      5-min Rain = 0
KGO1 241049Z 34011KT 05/04 A3003 RMK A01 T00540036  RH  088%=      5-min Rain = 0
KGO1 241050Z 34012KT 05/04 A3003 RMK A01 T00540036  RH  088%=      5-min Rain = 0
KGO1 241051Z 33012KT 05/04 A3003 RMK A01 T00540036  RH  088%=      5-min Rain = 0
KGO1 241052Z 34011KT 05/04 A3003 RMK A01 T00540036  RH  088%=      5-min Rain = 0
KGO1 241053Z 34011KT 05/04 A3003 RMK A01 T00540036  RH  088%=      5-min Rain = 0
KGO1 241054Z 34011KT 05/04 A3003 RMK A01 T00530036  RH  088%=      5-min Rain = 0
KGO1 241055Z 33011KT 05/04 A3003 RMK A01 T00530035  RH  088%=      5-min Rain = 0
KGO1 241056Z 33011KT 05/04 A3003 RMK A01 T00520035  RH  089%=      5-min Rain = 0
KGO1 241057Z 33011KT 05/04 A3003 RMK A01 T00520035  RH  089%=      5-min Rain = 0
KGO1 241058Z 33011KT 05/04 A3003 RMK A01 T00530035  RH  088%=      5-min Rain = 0
KGO1 241059Z 33010KT 05/03 A3003 RMK A01 T00520034  RH  089%=      5-min Rain = 0
KGO1 241100Z 34011KT 05/04 A3003 RMK A01 T00510035  RH  089%=      5-min Rain = 0
KGO1 241101Z 33011KT 05/04 A3003 RMK A01 T00510035  RH  089%=      5-min Rain = 0
KGO1 241102Z 34010KT 05/04 A3003 RMK A01 T00510035  RH  089%=      5-min Rain = 0
KGO1 241103Z 34011KT 05/03 A3003 RMK A01 T00500034  RH  090%=      5-min Rain = 0
KGO1 241104Z 34012KT 05/03 A3003 RMK A01 T00500034  RH  089%=      5-min Rain = 0
KGO1 241105Z 34012KT 05/03 A3003 RMK A01 T00500034  RH  089%=      5-min Rain = 0
KGO1 241106Z 34013KT 05/04 A3003 RMK A01 T00510035  RH  089%=      5-min Rain = 0
KGO1 241107Z 34012KT 05/04 A3003 RMK A01 T00510035  RH  089%=      5-min Rain = 0
KGO1 241108Z 34013KT 05/04 A3003 RMK A01 T00510035  RH  089%=      5-min Rain = 0
KGO1 241109Z 34012KT 05/04 A3003 RMK A01 T00510035  RH  089%=      5-min Rain = 0
KGO1 241110Z 34014KT 05/04 A3003 RMK A01 T00510035  RH  089%=      5-min Rain = 0
KGO1 241111Z 34013KT 05/04 A3003 RMK A01 T00510035  RH  089%=      5-min Rain = 0
KGO1 241112Z 34013KT 05/04 A3003 RMK A01 T00510035  RH  089%=      5-min Rain = 0
KGO1 241113Z 34013KT 05/04 A3003 RMK A01 T00510035  RH  089%=      5-min Rain = 0
KGO1 241114Z 34012KT 05/04 A3003 RMK A01 T00510035  RH  089%=      5-min Rain = 0
KGO1 241115Z 34012KT 05/04 A3003 RMK A01 T00510035  RH  089%=      5-min Rain = 0
KGO1 241116Z 34012KT 05/03 A3003 RMK A01 T00510034  RH  089%=      5-min Rain = 0
KGO1 241117Z 34010KT 05/04 A3003 RMK A01 T00510035  RH  089%=      5-min Rain = 0
KGO1 241118Z 34011KT 05/04 A3003 RMK A01 T00510035  RH  089%=      5-min Rain = 0
KGO1 241119Z 34010KT 05/03 A3003 RMK A01 T00500034  RH  089%=      5-min Rain = 0
KGO1 241120Z 35011KT 05/04 A3003 RMK A01 T00510035  RH  090%=      5-min Rain = 0
KGO1 241121Z 34010KT 05/04 A3003 RMK A01 T00510035  RH  089%=      5-min Rain = 0
KGO1 241122Z 34011KT 05/03 A3003 RMK A01 T00500034  RH  089%=      5-min Rain = 0
KGO1 241123Z 34009KT 05/03 A3003 RMK A01 T00500034  RH  090%=      5-min Rain = 0
KGO1 241124Z 35011KT 05/03 A3003 RMK A01 T00490034  RH  090%=      5-min Rain = 0
KGO1 241125Z 34011KT 05/03 A3003 RMK A01 T00490034  RH  090%=      5-min Rain = 0
KGO1 241126Z 34010KT 05/03 A3003 RMK A01 T00490034  RH  090%=      5-min Rain = 0
KGO1 241127Z 34010KT 05/03 A3003 RMK A01 T00490034  RH  090%=      5-min Rain = 0
KGO1 241128Z 35010KT 05/03 A3003 RMK A01 T00490034  RH  090%=      5-min Rain = 0
KGO1 241129Z 34010KT 05/03 A3003 RMK A01 T00490034  RH  090%=      5-min Rain = 0
KGO1 241130Z 34011KT 05/03 A3003 RMK A01 T00500034  RH  090%=      5-min Rain = 0
KGO1 241131Z 34010KT 05/04 A3003 RMK A01 T00500035  RH  090%=      5-min Rain = 0
KGO1 241132Z 34010KT 05/04 A3003 RMK A01 T00500035  RH  090%=      5-min Rain = 0
KGO1 241133Z 34009KT 05/03 A3003 RMK A01 T00500034  RH  090%=      5-min Rain = 0
KGO1 241134Z 34011KT 05/03 A3003 RMK A01 T00490034  RH  090%=      5-min Rain = 0
KGO1 241135Z 34011KT 05/03 A3003 RMK A01 T00490034  RH  090%=      5-min Rain = 0
KGO1 241136Z 34011KT 05/03 A3003 RMK A01 T00500034  RH  090%=      5-min Rain = 0
KGO1 241137Z 34011KT 05/03 A3003 RMK A01 T00500034  RH  090%=      5-min Rain = 0
KGO1 241138Z 34011KT 05/03 A3003 RMK A01 T00500034  RH  090%=      5-min Rain = 0
KGO1 241139Z 34009KT 05/03 A3003 RMK A01 T00510034  RH  089%=      5-min Rain = 0
KGO1 241140Z 34011KT 05/03 A3003 RMK A01 T00500034  RH  089%=      5-min Rain = 0
KGO1 241141Z 34010KT 05/03 A3004 RMK A01 T00500034  RH  089%=      5-min Rain = 0
KGO1 241142Z 34010KT 05/03 A3004 RMK A01 T00500034  RH  089%=      5-min Rain = 0
KGO1 241143Z 34009KT 05/03 A3004 RMK A01 T00500034  RH  089%=      5-min Rain = 0
KGO1 241144Z 33009KT 05/03 A3004 RMK A01 T00500034  RH  089%=      5-min Rain = 0
KGO1 241145Z 34009KT 05/03 A3004 RMK A01 T00500034  RH  089%=      5-min Rain = 0
KGO1 241146Z 33010KT 05/03 A3004 RMK A01 T00500034  RH  090%=      5-min Rain = 0
KGO1 241147Z 33009KT 05/03 A3004 RMK A01 T00500034  RH  089%=      5-min Rain = 0
KGO1 241148Z 34009KT 05/03 A3004 RMK A01 T00490033  RH  089%=      5-min Rain = 0
KGO1 241149Z 33009KT 05/03 A3004 RMK A01 T00490033  RH  090%=      5-min Rain = 0
KGO1 241150Z 34009KT 05/03 A3004 RMK A01 T00480033  RH  090%=      5-min Rain = 0
KGO1 241151Z 33010KT 05/03 A3004 RMK A01 T00480034  RH  090%=      5-min Rain = 0
KGO1 241152Z 34010KT 05/03 A3004 RMK A01 T00480033  RH  090%=      5-min Rain = 0
KGO1 241153Z 34010KT 05/03 A3004 RMK A01 T00480033  RH  090%=      5-min Rain = 0
KGO1 241154Z 34010KT 05/03 A3004 RMK A01 T00480033  RH  090%=      5-min Rain = 0
KGO1 241155Z 34009KT 05/03 A3004 RMK A01 T00480033  RH  090%=      5-min Rain = 0
KGO1 241156Z 34010KT 05/03 A3004 RMK A01 T00470033  RH  090%=      5-min Rain = 0
KGO1 241157Z 34011KT 05/03 A3004 RMK A01 T00470033  RH  091%=      5-min Rain = 0
KGO1 241158Z 34010KT 05/03 A3004 RMK A01 T00470033  RH  091%=      5-min Rain = 0
KGO1 241159Z 34010KT 05/03 A3004 RMK A01 T00470033  RH  091%=      5-min Rain = 0
KGO1 241200Z 34010KT 05/03 A3004 RMK A01 T00470033  RH  091%=      5-min Rain = 0
KGO1 241201Z 34011KT 05/03 A3004 RMK A01 T00470033  RH  091%=      5-min Rain = 0
KGO1 241202Z 34010KT 05/03 A3004 RMK A01 T00470033  RH  091%=      5-min Rain = 0
KGO1 241203Z 34010KT 05/03 A3004 RMK A01 T00470033  RH  091%=      5-min Rain = 0
KGO1 241204Z 34010KT 05/03 A3004 RMK A01 T00470033  RH  091%=      5-min Rain = 0
KGO1 241205Z 34010KT 05/03 A3004 RMK A01 T00470033  RH  091%=      5-min Rain = 0
KGO1 241206Z 34010KT 05/03 A3004 RMK A01 T00460033  RH  091%=      5-min Rain = 0
KGO1 241207Z 34011KT 05/03 A3004 RMK A01 T00460033  RH  091%=      5-min Rain = 0
KGO1 241208Z 34011KT 05/03 A3004 RMK A01 T00460033  RH  091%=      5-min Rain = 0
KGO1 241209Z 34012KT 05/03 A3004 RMK A01 T00470033  RH  091%=      5-min Rain = 0
KGO1 241210Z 34011KT 05/03 A3004 RMK A01 T00460033  RH  091%=      5-min Rain = 0
KGO1 241211Z 34011KT 05/03 A3004 RMK A01 T00460033  RH  091%=      5-min Rain = 0
KGO1 241212Z 34011KT 05/03 A3004 RMK A01 T00460033  RH  091%=      5-min Rain = 0
KGO1 241213Z 34011KT 05/03 A3004 RMK A01 T00470033  RH  091%=      5-min Rain = 0
KGO1 241214Z 34012KT 05/03 A3004 RMK A01 T00470033  RH  091%=      5-min Rain = 0
KGO1 241215Z 34013KT 05/03 A3003 RMK A01 T00460033  RH  091%=      5-min Rain = 0
KGO1 241216Z 34013KT 05/03 A3003 RMK A01 T00470033  RH  091%=      5-min Rain = 0
KGO1 241217Z 34012KT 05/03 A3003 RMK A01 T00470033  RH  091%=      5-min Rain = 0
KGO1 241218Z 34012KT 05/03 A3003 RMK A01 T00470033  RH  091%=      5-min Rain = 0
KGO1 241219Z 34013KT 05/03 A3003 RMK A01 T00470033  RH  091%=      5-min Rain = 0
KGO1 241220Z 34012KT 05/03 A3003 RMK A01 T00470033  RH  091%=      5-min Rain = 0
KGO1 241221Z 34012KT 05/03 A3003 RMK A01 T00470033  RH  090%=      5-min Rain = 0
KGO1 241222Z 34012KT 05/03 A3003 RMK A01 T00470033  RH  090%=      5-min Rain = 0
KGO1 241223Z 34011KT 05/03 A3003 RMK A01 T00470033  RH  090%=      5-min Rain = 0
KGO1 241224Z 34011KT 05/03 A3004 RMK A01 T00470032  RH  090%=      5-min Rain = 0
KGO1 241225Z 34011KT 05/03 A3004 RMK A01 T00470032  RH  090%=      5-min Rain = 0
KGO1 241226Z 34010KT 05/03 A3004 RMK A01 T00470032  RH  090%=      5-min Rain = 0
KGO1 241227Z 34010KT 05/03 A3004 RMK A01 T00470032  RH  090%=      5-min Rain = 0
KGO1 241228Z 34012KT 05/03 A3004 RMK A01 T00470032  RH  090%=      5-min Rain = 0
KGO1 241229Z 34011KT 05/03 A3004 RMK A01 T00470032  RH  090%=      5-min Rain = 0
KGO1 241230Z 34011KT 05/03 A3004 RMK A01 T00480032  RH  090%=      5-min Rain = 0
KGO1 241231Z 34010KT 05/03 A3004 RMK A01 T00480032  RH  090%=      5-min Rain = 0
KGO1 241232Z 34010KT 05/03 A3004 RMK A01 T00480032  RH  089%=      5-min Rain = 0
KGO1 241233Z 34010KT 05/03 A3004 RMK A01 T00480032  RH  089%=      5-min Rain = 0
KGO1 241234Z 34010KT 05/03 A3004 RMK A01 T00480032  RH  089%=      5-min Rain = 0
KGO1 241235Z 34009KT 05/03 A3004 RMK A01 T00480032  RH  089%=      5-min Rain = 0
KGO1 241236Z 34009KT 05/03 A3005 RMK A01 T00470031  RH  089%=      5-min Rain = 0
KGO1 241237Z 34008KT 05/03 A3005 RMK A01 T00470031  RH  089%=      5-min Rain = 0
KGO1 241238Z 34009KT 05/03 A3005 RMK A01 T00470031  RH  089%=      5-min Rain = 0
KGO1 241239Z 34010KT 05/03 A3005 RMK A01 T00470031  RH  089%=      5-min Rain = 0
KGO1 241240Z 33008KT 05/03 A3005 RMK A01 T00470031  RH  089%=      5-min Rain = 0
KGO1 241241Z 34009KT 05/03 A3005 RMK A01 T00470031  RH  089%=      5-min Rain = 0
KGO1 241242Z 33009KT 05/03 A3005 RMK A01 T00470031  RH  089%=      5-min Rain = 0
KGO1 241243Z 34009KT 05/03 A3005 RMK A01 T00470031  RH  089%=      5-min Rain = 0
KGO1 241244Z 34009KT 05/03 A3005 RMK A01 T00470031  RH  089%=      5-min Rain = 0
KGO1 241245Z 33010KT 05/03 A3005 RMK A01 T00470031  RH  089%=      5-min Rain = 0
KGO1 241246Z 33010KT 05/03 A3005 RMK A01 T00480031  RH  089%=      5-min Rain = 0
KGO1 241247Z 33010KT 05/03 A3005 RMK A01 T00480031  RH  089%=      5-min Rain = 0
KGO1 241248Z 33011KT 05/03 A3005 RMK A01 T00480031  RH  089%=      5-min Rain = 0
KGO1 241249Z 33011KT 05/03 A3005 RMK A01 T00480031  RH  089%=      5-min Rain = 0
KGO1 241250Z 33011KT 05/03 A3005 RMK A01 T00480031  RH  089%=      5-min Rain = 0
KGO1 241251Z 33011KT 05/03 A3005 RMK A01 T00480031  RH  089%=      5-min Rain = 0
KGO1 241252Z 33011KT 05/03 A3005 RMK A01 T00480031  RH  089%=      5-min Rain = 0
KGO1 241253Z 33011KT 05/03 A3005 RMK A01 T00480031  RH  089%=      5-min Rain = 0
KGO1 241254Z 33011KT 05/03 A3005 RMK A01 T00470031  RH  089%=      5-min Rain = 0
KGO1 241255Z 33010KT 05/03 A3006 RMK A01 T00470031  RH  089%=      5-min Rain = 0
KGO1 241256Z 33010KT 05/03 A3006 RMK A01 T00480031  RH  089%=      5-min Rain = 0
KGO1 241257Z 33010KT 05/03 A3006 RMK A01 T00470031  RH  089%=      5-min Rain = 0
KGO1 241258Z 33009KT 05/03 A3006 RMK A01 T00470031  RH  089%=      5-min Rain = 0
KGO1 241259Z 32010KT 05/03 A3006 RMK A01 T00470031  RH  089%=      5-min Rain = 0
KGO1 241300Z 32010KT 05/03 A3006 RMK A01 T00470031  RH  090%=      5-min Rain = 0
KGO1 241301Z 32010KT 05/03 A3006 RMK A01 T00470031  RH  089%=      5-min Rain = 0
KGO1 241302Z 33010KT 05/03 A3006 RMK A01 T00470031  RH  089%=      5-min Rain = 0
KGO1 241303Z 32011KT 05/03 A3006 RMK A01 T00480031  RH  089%=      5-min Rain = 0
KGO1 241304Z 32011KT 05/03 A3006 RMK A01 T00480031  RH  089%=      5-min Rain = 0
KGO1 241305Z 32011KT 05/03 A3006 RMK A01 T00480032  RH  089%=      5-min Rain = 0
KGO1 241306Z 32010KT 05/03 A3006 RMK A01 T00480032  RH  089%=      5-min Rain = 0
KGO1 241307Z 32011KT 05/03 A3006 RMK A01 T00490032  RH  089%=      5-min Rain = 0
KGO1 241308Z 32011KT 05/03 A3006 RMK A01 T00500032  RH  089%=      5-min Rain = 0
KGO1 241309Z 32011KT 05/03 A3006 RMK A01 T00500033  RH  088%=      5-min Rain = 0
KGO1 241310Z 32010KT 05/03 A3006 RMK A01 T00500033  RH  088%=      5-min Rain = 0
KGO1 241311Z 32010KT 05/03 A3006 RMK A01 T00500032  RH  088%=      5-min Rain = 0
KGO1 241312Z 32010KT 05/03 A3006 RMK A01 T00510033  RH  088%=      5-min Rain = 0
KGO1 241313Z 32010KT 05/03 A3006 RMK A01 T00510032  RH  088%=      5-min Rain = 0
KGO1 241314Z 32009KT 05/03 A3006 RMK A01 T00510033  RH  088%=      5-min Rain = 0
KGO1 241315Z 32010KT 05/03 A3006 RMK A01 T00510033  RH  088%=      5-min Rain = 0
KGO1 241316Z 32009KT 05/03 A3006 RMK A01 T00510032  RH  088%=      5-min Rain = 0
KGO1 241317Z 33009KT 05/03 A3006 RMK A01 T00520033  RH  088%=      5-min Rain = 0
KGO1 241318Z 33009KT 05/03 A3006 RMK A01 T00520033  RH  088%=      5-min Rain = 0
KGO1 241319Z 32010KT 05/03 A3007 RMK A01 T00520033  RH  088%=      5-min Rain = 0
KGO1 241320Z 33010KT 05/03 A3007 RMK A01 T00520033  RH  088%=      5-min Rain = 0
KGO1 241321Z 33009KT 05/03 A3007 RMK A01 T00530034  RH  087%=      5-min Rain = 0
KGO1 241322Z 33010KT 05/03 A3007 RMK A01 T00540034  RH  087%=      5-min Rain = 0
KGO1 241323Z 33009KT 05/03 A3007 RMK A01 T00540034  RH  087%=      5-min Rain = 0
KGO1 241324Z 33010KT 06/03 A3007 RMK A01 T00550034  RH  087%=      5-min Rain = 0
KGO1 241325Z 33009KT 06/03 A3007 RMK A01 T00550034  RH  087%=      5-min Rain = 0
KGO1 241326Z 32009KT 06/04 A3007 RMK A01 T00550035  RH  087%=      5-min Rain = 0
KGO1 241327Z 33010KT 06/04 A3007 RMK A01 T00550035  RH  087%=      5-min Rain = 0
KGO1 241328Z 33009KT 06/03 A3007 RMK A01 T00560034  RH  086%=      5-min Rain = 0
KGO1 241329Z 33009KT 06/04 A3007 RMK A01 T00560035  RH  086%=      5-min Rain = 0
KGO1 241330Z 33010KT 06/04 A3007 RMK A01 T00560035  RH  086%=      5-min Rain = 0
KGO1 241331Z 34010KT 06/04 A3007 RMK A01 T00570035  RH  086%=      5-min Rain = 0
KGO1 241332Z 33008KT 06/04 A3007 RMK A01 T00570035  RH  085%=      5-min Rain = 0
KGO1 241333Z 33010KT 06/04 A3007 RMK A01 T00580036  RH  086%=      5-min Rain = 0
KGO1 241334Z 33010KT 06/04 A3007 RMK A01 T00580035  RH  085%=      5-min Rain = 0
KGO1 241335Z 33010KT 06/04 A3007 RMK A01 T00580035  RH  085%=      5-min Rain = 0
KGO1 241336Z 33009KT 06/04 A3007 RMK A01 T00590035  RH  085%=      5-min Rain = 0
KGO1 241337Z 33009KT 06/04 A3007 RMK A01 T00590036  RH  085%=      5-min Rain = 0
KGO1 241338Z 33009KT 06/04 A3007 RMK A01 T00600036  RH  085%=      5-min Rain = 0
KGO1 241339Z 33009KT 06/04 A3007 RMK A01 T00600036  RH  084%=      5-min Rain = 0
KGO1 241340Z 33009KT 06/04 A3007 RMK A01 T00600036  RH  085%=      5-min Rain = 0
KGO1 241341Z 33010KT 06/04 A3007 RMK A01 T00610037  RH  084%=      5-min Rain = 0
KGO1 241342Z 34009KT 06/04 A3008 RMK A01 T00620037  RH  084%=      5-min Rain = 0
KGO1 241343Z 33009KT 06/04 A3008 RMK A01 T00620037  RH  084%=      5-min Rain = 0
KGO1 241344Z 33008KT 06/04 A3007 RMK A01 T00630038  RH  084%=      5-min Rain = 0
KGO1 241345Z 34009KT 06/04 A3008 RMK A01 T00640038  RH  084%=      5-min Rain = 0
KGO1 241346Z 34009KT 06/04 A3008 RMK A01 T00640037  RH  083%=      5-min Rain = 0
KGO1 241347Z 33008KT 06/04 A3008 RMK A01 T00640038  RH  083%=      5-min Rain = 0
KGO1 241348Z 33008KT 06/04 A3008 RMK A01 T00640039  RH  084%=      5-min Rain = 0
KGO1 241349Z 34010KT 06/04 A3008 RMK A01 T00640038  RH  083%=      5-min Rain = 0
KGO1 241350Z 33010KT 07/04 A3008 RMK A01 T00650038  RH  083%=      5-min Rain = 0
KGO1 241351Z 33009KT 07/04 A3008 RMK A01 T00650037  RH  083%=      5-min Rain = 0
KGO1 241352Z 33008KT 07/04 A3008 RMK A01 T00650038  RH  083%=      5-min Rain = 0
KGO1 241353Z 33009KT 07/04 A3008 RMK A01 T00660039  RH  083%=      5-min Rain = 0
KGO1 241354Z 34010KT 07/04 A3008 RMK A01 T00670038  RH  082%=      5-min Rain = 0
KGO1 241355Z 34009KT 07/04 A3008 RMK A01 T00670039  RH  082%=      5-min Rain = 0
KGO1 241356Z 34009KT 07/04 A3008 RMK A01 T00670038  RH  082%=      5-min Rain = 0
KGO1 241357Z 33010KT 07/04 A3008 RMK A01 T00670038  RH  082%=      5-min Rain = 0
KGO1 241358Z 34009KT 07/04 A3008 RMK A01 T00670038  RH  082%=      5-min Rain = 0
KGO1 241359Z 34009KT 07/04 A3008 RMK A01 T00680041  RH  083%=      5-min Rain = 0
KGO1 241400Z 34009KT 07/04 A3008 RMK A01 T00690040  RH  082%=      5-min Rain = 0
KGO1 241401Z 34010KT 07/04 A3008 RMK A01 T00700041  RH  082%=      5-min Rain = 0
KGO1 241402Z 34012KT 07/04 A3008 RMK A01 T00700040  RH  082%=      5-min Rain = 0
KGO1 241403Z 34011KT 07/04 A3008 RMK A01 T00700039  RH  081%=      5-min Rain = 0
KGO1 241404Z 34010KT 07/04 A3008 RMK A01 T00710041  RH  081%=      5-min Rain = 0
KGO1 241405Z 34012KT 07/04 A3008 RMK A01 T00720042  RH  081%=      5-min Rain = 0
KGO1 241406Z 34012KT 07/04 A3008 RMK A01 T00720041  RH  081%=      5-min Rain = 0
KGO1 241407Z 35012KT 07/04 A3008 RMK A01 T00730043  RH  081%=      5-min Rain = 0
KGO1 241408Z 34011KT 07/04 A3008 RMK A01 T00740043  RH  081%=      5-min Rain = 0
KGO1 241409Z 34010KT 08/04 A3008 RMK A01 T00750044  RH  081%=      5-min Rain = 0
KGO1 241410Z 34010KT 08/05 A3008 RMK A01 T00760045  RH  080%=      5-min Rain = 0
KGO1 241411Z 34010KT 08/05 A3008 RMK A01 T00770045  RH  080%=      5-min Rain = 0
KGO1 241412Z 34012KT 08/04 A3008 RMK A01 T00780044  RH  079%=      5-min Rain = 0
KGO1 241413Z 33012KT 08/04 A3008 RMK A01 T00780044  RH  079%=      5-min Rain = 0
KGO1 241414Z 33011KT 08/04 A3008 RMK A01 T00790043  RH  078%=      5-min Rain = 0
KGO1 241415Z 34010KT 08/05 A3008 RMK A01 T00800045  RH  079%=      5-min Rain = 0
KGO1 241416Z 35014KT 08/04 A3008 RMK A01 T00810044  RH  078%=      5-min Rain = 0
KGO1 241417Z 34012KT 08/04 A3008 RMK A01 T00790040  RH  076%=      5-min Rain = 0
KGO1 241418Z 35012KT 08/04 A3008 RMK A01 T00780040  RH  077%=      5-min Rain = 0
KGO1 241419Z 35012G17KT 08/04 A3008 RMK A01 T00770041  RH  078%=      5-min Rain = 0
KGO1 241420Z 34010KT 08/04 A3008 RMK A01 T00770042  RH  078%=      5-min Rain = 0
KGO1 241421Z 34014KT 08/04 A3009 RMK A01 T00770042  RH  078%=      5-min Rain = 0
KGO1 241422Z 35014KT 08/04 A3009 RMK A01 T00780041  RH  077%=      5-min Rain = 0
KGO1 241423Z 35013KT 08/04 A3009 RMK A01 T00780041  RH  077%=      5-min Rain = 0
KGO1 241424Z 35012KT 08/04 A3009 RMK A01 T00780043  RH  078%=      5-min Rain = 0
KGO1 241425Z 35012KT 08/04 A3009 RMK A01 T00790043  RH  078%=      5-min Rain = 0
KGO1 241426Z 35010KT 08/04 A3009 RMK A01 T00790043  RH  078%=      5-min Rain = 0
KGO1 241427Z 36013KT 08/05 A3009 RMK A01 T00810046  RH  078%=      5-min Rain = 0
KGO1 241428Z 36013KT 08/04 A3009 RMK A01 T00810042  RH  076%=      5-min Rain = 0
KGO1 241429Z 00013KT 08/04 A3009 RMK A01 T00820042  RH  076%=      5-min Rain = 0
KGO1 241430Z 35011KT 08/04 A3009 RMK A01 T00820044  RH  077%=      5-min Rain = 0
KGO1 241431Z 35011KT 08/05 A3009 RMK A01 T00820045  RH  077%=      5-min Rain = 0
KGO1 241432Z 35011KT 08/04 A3009 RMK A01 T00830044  RH  076%=      5-min Rain = 0
KGO1 241433Z 35012KT 08/04 A3009 RMK A01 T00840044  RH  076%=      5-min Rain = 0
KGO1 241434Z 35011KT 09/04 A3009 RMK A01 T00850043  RH  075%=      5-min Rain = 0
KGO1 241435Z 35011KT 09/05 A301 RMK A01 T00860045  RH  076%=      5-min Rain = 0
KGO1 241436Z 36012KT 09/04 A301 RMK A01 T00860044  RH  075%=      5-min Rain = 0
KGO1 241437Z 34012KT 09/04 A301 RMK A01 T00860044  RH  075%=      5-min Rain = 0
KGO1 241438Z 35009KT 09/04 A301 RMK A01 T00870044  RH  075%=      5-min Rain = 0
KGO1 241439Z 34010KT 09/05 A301 RMK A01 T00880047  RH  076%=      5-min Rain = 0
KGO1 241440Z 36010KT 09/05 A301 RMK A01 T00890045  RH  074%=      5-min Rain = 0
KGO1 241441Z 00012KT 09/05 A301 RMK A01 T00880045  RH  074%=      5-min Rain = 0
KGO1 241442Z 00009KT 09/04 A301 RMK A01 T00880043  RH  073%=      5-min Rain = 0
KGO1 241443Z 00009KT 09/05 A301 RMK A01 T00880046  RH  074%=      5-min Rain = 0
KGO1 241444Z 36009G14KT 09/05 A301 RMK A01 T00900048  RH  075%=      5-min Rain = 0
KGO1 241445Z 36012KT 09/05 A301 RMK A01 T00910045  RH  073%=      5-min Rain = 0
KGO1 241446Z 36011KT 09/04 A301 RMK A01 T00910044  RH  073%=      5-min Rain = 0
KGO1 241447Z 36010KT 09/04 A301 RMK A01 T00900044  RH  073%=      5-min Rain = 0
KGO1 241448Z 35012KT 09/05 A301 RMK A01 T00910045  RH  073%=      5-min Rain = 0
KGO1 241449Z 36011KT 09/04 A301 RMK A01 T00910044  RH  072%=      5-min Rain = 0
KGO1 241450Z 35012KT 09/05 A301 RMK A01 T00920047  RH  073%=      5-min Rain = 0
KGO1 241451Z 35011KT 09/05 A301 RMK A01 T00940045  RH  072%=      5-min Rain = 0
KGO1 241452Z 00009KT 09/05 A301 RMK A01 T00930047  RH  073%=      5-min Rain = 0
KGO1 241453Z 35013KT 09/05 A301 RMK A01 T00940047  RH  073%=      5-min Rain = 0
KGO1 241454Z 36013KT 09/05 A301 RMK A01 T00930045  RH  072%=      5-min Rain = 0
KGO1 241455Z 36011KT 09/05 A301 RMK A01 T00920045  RH  073%=      5-min Rain = 0
KGO1 241456Z 35011KT 09/04 A301 RMK A01 T00910044  RH  072%=      5-min Rain = 0
KGO1 241457Z 35011KT 09/05 A301 RMK A01 T00910046  RH  073%=      5-min Rain = 0
KGO1 241458Z 35011KT 09/05 A301 RMK A01 T00910045  RH  073%=      5-min Rain = 0
KGO1 241459Z 35010KT 09/05 A301 RMK A01 T00930047  RH  073%=      5-min Rain = 0
KGO1 241500Z 35012KT 09/05 A301 RMK A01 T00940048  RH  073%=      5-min Rain = 0
KGO1 241501Z 34010KT 10/05 A301 RMK A01 T00950048  RH  072%=      5-min Rain = 0
KGO1 241502Z 36011KT 10/05 A301 RMK A01 T00980052  RH  073%=      5-min Rain = 0
KGO1 241503Z 35012KT 10/05 A301 RMK A01 T00990049  RH  071%=      5-min Rain = 0
KGO1 241504Z 35012KT 10/05 A301 RMK A01 T00990046  RH  070%=      5-min Rain = 0
KGO1 241505Z 36012KT 10/05 A301 RMK A01 T00970046  RH  071%=      5-min Rain = 0
KGO1 241506Z 36011KT 10/05 A301 RMK A01 T00970049  RH  072%=      5-min Rain = 0
KGO1 241507Z 35011KT 10/05 A301 RMK A01 T00980051  RH  072%=      5-min Rain = 0
KGO1 241508Z 36012KT 10/05 A301 RMK A01 T01000049  RH  071%=      5-min Rain = 0
KGO1 241509Z 00012KT 10/05 A3011 RMK A01 T00990048  RH  070%=      5-min Rain = 0
KGO1 241510Z 36011KT 10/05 A3011 RMK A01 T00990048  RH  071%=      5-min Rain = 0
KGO1 241511Z 36010KT 10/05 A3011 RMK A01 T00990051  RH  072%=      5-min Rain = 0
KGO1 241512Z 36011KT 10/05 A3011 RMK A01 T01000050  RH  071%=      5-min Rain = 0
KGO1 241513Z 00010KT 10/05 A3011 RMK A01 T01010049  RH  070%=      5-min Rain = 0
KGO1 241514Z 35011KT 10/05 A3011 RMK A01 T01010050  RH  070%=      5-min Rain = 0
KGO1 241515Z 35012KT 10/05 A301 RMK A01 T01020050  RH  070%=      5-min Rain = 0
KGO1 241516Z 35011KT 10/05 A301 RMK A01 T01020048  RH  069%=      5-min Rain = 0
KGO1 241517Z 35011KT 10/05 A301 RMK A01 T01030049  RH  069%=      5-min Rain = 0
KGO1 241518Z 36011KT 10/05 A301 RMK A01 T01030050  RH  069%=      5-min Rain = 0
KGO1 241519Z 00010KT 10/05 A301 RMK A01 T01040051  RH  070%=      5-min Rain = 0
KGO1 241520Z 01010KT 10/05 A301 RMK A01 T01040050  RH  069%=      5-min Rain = 0
KGO1 241521Z 35010KT 11/05 A301 RMK A01 T01050052  RH  069%=      5-min Rain = 0
KGO1 241522Z 35011KT 11/05 A301 RMK A01 T01060051  RH  069%=      5-min Rain = 0
KGO1 241523Z 36011KT 11/05 A3011 RMK A01 T01060051  RH  069%=      5-min Rain = 0
KGO1 241524Z 34011KT 11/05 A301 RMK A01 T01060049  RH  068%=      5-min Rain = 0
KGO1 241525Z 34010KT 11/05 A301 RMK A01 T01060050  RH  068%=      5-min Rain = 0
KGO1 241526Z 34010KT 11/05 A3011 RMK A01 T01060051  RH  069%=      5-min Rain = 0
KGO1 241527Z 34010KT 11/05 A3011 RMK A01 T01080052  RH  068%=      5-min Rain = 0
KGO1 241528Z 35010KT 11/05 A3011 RMK A01 T01100050  RH  067%=      5-min Rain = 0
KGO1 241529Z 34010KT 11/05 A3011 RMK A01 T01090052  RH  068%=      5-min Rain = 0
KGO1 241530Z 34009KT 11/05 A3011 RMK A01 T01090052  RH  068%=      5-min Rain = 0
KGO1 241531Z 34009KT 11/05 A3011 RMK A01 T01090051  RH  068%=      5-min Rain = 0
KGO1 241532Z 35009KT 11/05 A3011 RMK A01 T01100054  RH  068%=      5-min Rain = 0
KGO1 241533Z 35007KT 11/05 A3011 RMK A01 T01120054  RH  068%=      5-min Rain = 0
KGO1 241534Z 35009KT 11/06 A3011 RMK A01 T01130055  RH  067%=      5-min Rain = 0
KGO1 241535Z 34010KT 12/05 A3011 RMK A01 T01150053  RH  066%=      5-min Rain = 0
KGO1 241536Z 35010KT 12/05 A3011 RMK A01 T01150052  RH  065%=      5-min Rain = 0
KGO1 241537Z 35009KT 12/05 A3011 RMK A01 T01150054  RH  066%=      5-min Rain = 0
KGO1 241538Z 35008KT 12/05 A3011 RMK A01 T01150051  RH  065%=      5-min Rain = 0
KGO1 241539Z 00008KT 12/05 A3011 RMK A01 T01150054  RH  066%=      5-min Rain = 0
KGO1 241540Z 35008KT 12/06 A3011 RMK A01 T01170056  RH  066%=      5-min Rain = 0
KGO1 241541Z 34010KT 12/05 A3011 RMK A01 T01200053  RH  064%=      5-min Rain = 0
KGO1 241542Z 34008KT 12/05 A3011 RMK A01 T01190054  RH  064%=      5-min Rain = 0
KGO1 241543Z 00009KT 12/05 A3011 RMK A01 T01200053  RH  064%=      5-min Rain = 0
KGO1 241544Z 00008KT 12/05 A3011 RMK A01 T01190047  RH  061%=      5-min Rain = 0
KGO1 241545Z 35008KT 12/05 A3011 RMK A01 T01180052  RH  064%=      5-min Rain = 0
KGO1 241546Z 35009KT 12/05 A3011 RMK A01 T01190052  RH  063%=      5-min Rain = 0
KGO1 241547Z 00009KT 12/05 A3011 RMK A01 T01210051  RH  062%=      5-min Rain = 0
KGO1 241548Z 35009KT 12/05 A3011 RMK A01 T01210050  RH  062%=      5-min Rain = 0
KGO1 241549Z 36008KT 12/05 A3011 RMK A01 T01190049  RH  062%=      5-min Rain = 0
KGO1 241550Z 35008KT 12/05 A3011 RMK A01 T01180050  RH  063%=      5-min Rain = 0
KGO1 241551Z 35008KT 12/05 A3011 RMK A01 T01180048  RH  062%=      5-min Rain = 0
KGO1 241552Z 35008KT 12/05 A3011 RMK A01 T01170050  RH  063%=      5-min Rain = 0
KGO1 241553Z 00006KT 12/05 A3011 RMK A01 T01170050  RH  063%=      5-min Rain = 0
KGO1 241554Z 00007G12KT 12/05 A3011 RMK A01 T01180054  RH  065%=      5-min Rain = 0
KGO1 241555Z 01008KT 12/05 A3011 RMK A01 T01200050  RH  062%=      5-min Rain = 0
KGO1 241556Z 00008KT 12/05 A3011 RMK A01 T01210050  RH  062%=      5-min Rain = 0
KGO1 241557Z 00008KT 12/05 A3011 RMK A01 T01220051  RH  062%=      5-min Rain = 0
KGO1 241558Z 01006KT 12/05 A3011 RMK A01 T01220051  RH  062%=      5-min Rain = 0
KGO1 241559Z 00006KT 12/06 A3011 RMK A01 T01230058  RH  064%=      5-min Rain = 0
KGO1 241600Z 01008KT 13/06 A3011 RMK A01 T01270057  RH  062%=      5-min Rain = 0
KGO1 241601Z 36008KT 13/06 A3011 RMK A01 T01290055  RH  061%=      5-min Rain = 0
KGO1 241602Z 35008KT 13/05 A3011 RMK A01 T01280054  RH  061%=      5-min Rain = 0
KGO1 241603Z 34007KT 13/06 A3011 RMK A01 T01280056  RH  062%=      5-min Rain = 0
KGO1 241604Z 34009KT 13/06 A3011 RMK A01 T01290058  RH  062%=      5-min Rain = 0
KGO1 241605Z 35008KT 13/05 A3011 RMK A01 T01290053  RH  060%=      5-min Rain = 0
KGO1 241606Z 01009KT 13/05 A3011 RMK A01 T01270050  RH  060%=      5-min Rain = 0
KGO1 241607Z 36008KT 13/06 A3011 RMK A01 T01270055  RH  062%=      5-min Rain = 0
KGO1 241608Z 35005KT 13/06 A3011 RMK A01 T01290056  RH  061%=      5-min Rain = 0
KGO1 241609Z 36008KT 13/06 A3011 RMK A01 T01310057  RH  061%=      5-min Rain = 0
KGO1 241610Z 00007KT 13/05 A3011 RMK A01 T01310048  RH  057%=      5-min Rain = 0
KGO1 241611Z 35007KT 13/06 A3011 RMK A01 T01310055  RH  060%=      5-min Rain = 0
KGO1 241612Z 36009KT 13/06 A3011 RMK A01 T01320057  RH  060%=      5-min Rain = 0
KGO1 241613Z 01009KT 13/05 A3011 RMK A01 T01320052  RH  058%=      5-min Rain = 0
KGO1 241614Z 02008KT 13/05 A3011 RMK A01 T01310045  RH  056%=      5-min Rain = 0
KGO1 241615Z 02007KT 13/04 A3011 RMK A01 T01300044  RH  056%=      5-min Rain = 0
KGO1 241616Z 01009KT 13/05 A3011 RMK A01 T01290047  RH  058%=      5-min Rain = 0
KGO1 241617Z 01008KT 13/05 A3011 RMK A01 T01290050  RH  059%=      5-min Rain = 0
KGO1 241618Z 01009KT 13/05 A3011 RMK A01 T01300051  RH  059%=      5-min Rain = 0
KGO1 241619Z 02008KT 13/05 A3011 RMK A01 T01310048  RH  057%=      5-min Rain = 0
KGO1 241620Z 02008KT 13/05 A3011 RMK A01 T01310046  RH  056%=      5-min Rain = 0
KGO1 241621Z 02008KT 13/05 A3011 RMK A01 T01310046  RH  056%=      5-min Rain = 0
KGO1 241622Z 01006KT 13/05 A3011 RMK A01 T01320053  RH  059%=      5-min Rain = 0
KGO1 241623Z 01007KT 13/05 A3012 RMK A01 T01340054  RH  058%=      5-min Rain = 0
KGO1 241624Z 03007KT 14/05 A3012 RMK A01 T01360054  RH  057%=      5-min Rain = 0
KGO1 241625Z 03006KT 14/05 A3012 RMK A01 T01370050  RH  056%=      5-min Rain = 0
KGO1 241626Z 01008KT 14/05 A3012 RMK A01 T01370049  RH  056%=      5-min Rain = 0
KGO1 241627Z 01006KT 13/05 A3012 RMK A01 T01340049  RH  056%=      5-min Rain = 0
KGO1 241628Z 36007KT 13/05 A3012 RMK A01 T01330051  RH  058%=      5-min Rain = 0
KGO1 241629Z 01007KT 13/05 A3012 RMK A01 T01310048  RH  057%=      5-min Rain = 0
KGO1 241630Z 02008KT 13/05 A3012 RMK A01 T01300047  RH  057%=      5-min Rain = 0
KGO1 241631Z 03008KT 13/05 A3012 RMK A01 T01310047  RH  056%=      5-min Rain = 0
KGO1 241632Z 03007KT 13/05 A3012 RMK A01 T01340046  RH  055%=      5-min Rain = 0
KGO1 241633Z 01007KT 14/05 A3012 RMK A01 T01350048  RH  055%=      5-min Rain = 0
KGO1 241634Z 01007KT 14/05 A3012 RMK A01 T01370051  RH  056%=      5-min Rain = 0
KGO1 241635Z 00010KT 14/05 A3012 RMK A01 T01380051  RH  056%=      5-min Rain = 0
KGO1 241636Z 01009KT 14/05 A3011 RMK A01 T01380051  RH  056%=      5-min Rain = 0
KGO1 241637Z 02007KT 14/05 A3011 RMK A01 T01380050  RH  055%=      5-min Rain = 0
KGO1 241638Z 04007KT 14/06 A3011 RMK A01 T01400056  RH  057%=      5-min Rain = 0
KGO1 241639Z 04007KT 14/05 A3011 RMK A01 T01420048  RH  053%=      5-min Rain = 0
KGO1 241640Z 04008KT 14/05 A3011 RMK A01 T01400047  RH  053%=      5-min Rain = 0
KGO1 241641Z 03007KT 14/05 A3011 RMK A01 T01380046  RH  053%=      5-min Rain = 0
KGO1 241642Z 01007KT 14/04 A3011 RMK A01 T01360043  RH  053%=      5-min Rain = 0
KGO1 241643Z 02008KT 14/05 A3011 RMK A01 T01350046  RH  055%=      5-min Rain = 0
KGO1 241644Z 03009KT 14/04 A3011 RMK A01 T01350043  RH  054%=      5-min Rain = 0
KGO1 241645Z 04006KT 14/05 A3011 RMK A01 T01370049  RH  055%=      5-min Rain = 0
KGO1 241646Z 04007KT 14/05 A3012 RMK A01 T01380048  RH  054%=      5-min Rain = 0
KGO1 241647Z 04007KT 14/05 A3012 RMK A01 T01390046  RH  053%=      5-min Rain = 0
KGO1 241648Z 03007KT 14/04 A3012 RMK A01 T01390044  RH  053%=      5-min Rain = 0
KGO1 241649Z 03005KT 14/04 A3012 RMK A01 T01370040  RH  052%=      5-min Rain = 0
KGO1 241650Z 06007KT 14/04 A3012 RMK A01 T01350043  RH  054%=      5-min Rain = 0
KGO1 241651Z 06007KT 14/05 A3012 RMK A01 T01360047  RH  055%=      5-min Rain = 0
KGO1 241652Z 06007KT 14/05 A3012 RMK A01 T01370049  RH  055%=      5-min Rain = 0
KGO1 241653Z 05007KT 14/05 A3012 RMK A01 T01380046  RH  054%=      5-min Rain = 0
KGO1 241654Z 03007KT 14/05 A3012 RMK A01 T01380046  RH  054%=      5-min Rain = 0
KGO1 241655Z 02005KT 14/05 A3012 RMK A01 T01380046  RH  054%=      5-min Rain = 0
KGO1 241656Z 04004KT 14/05 A3012 RMK A01 T01390049  RH  055%=      5-min Rain = 0
KGO1 241657Z 05007KT 14/05 A3012 RMK A01 T01390046  RH  053%=      5-min Rain = 0
KGO1 241658Z 05006KT 14/04 A3012 RMK A01 T01370044  RH  053%=      5-min Rain = 0
KGO1 241659Z 04005KT 14/04 A3012 RMK A01 T01360044  RH  054%=      5-min Rain = 0
KGO1 241700Z 04004KT 14/04 A3012 RMK A01 T01360044  RH  054%=      5-min Rain = 0
KGO1 241701Z 03006KT 14/05 A3012 RMK A01 T01380049  RH  055%=      5-min Rain = 0
KGO1 241702Z 04007KT 14/05 A3012 RMK A01 T01400050  RH  054%=      5-min Rain = 0
KGO1 241703Z 04006KT 14/05 A3012 RMK A01 T01420052  RH  055%=      5-min Rain = 0
KGO1 241704Z 03006KT 14/05 A3012 RMK A01 T01430050  RH  053%=      5-min Rain = 0
KGO1 241705Z 02006KT 14/05 A3012 RMK A01 T01430049  RH  053%=      5-min Rain = 0
KGO1 241706Z 04007KT 14/05 A3012 RMK A01 T01440052  RH  054%=      5-min Rain = 0
KGO1 241707Z 04004KT 15/05 A3012 RMK A01 T01450052  RH  054%=      5-min Rain = 0
KGO1 241708Z 02007KT 15/05 A3012 RMK A01 T01460054  RH  054%=      5-min Rain = 0
KGO1 241709Z 03005KT 15/05 A3012 RMK A01 T01470049  RH  052%=      5-min Rain = 0
KGO1 241710Z 03008KT 15/05 A3012 RMK A01 T01460051  RH  053%=      5-min Rain = 0
KGO1 241711Z 03007KT 15/05 A3012 RMK A01 T01460049  RH  052%=      5-min Rain = 0
KGO1 241712Z 04006KT 15/05 A3012 RMK A01 T01450046  RH  051%=      5-min Rain = 0
KGO1 241713Z 05006KT 14/05 A3012 RMK A01 T01430047  RH  052%=      5-min Rain = 0
KGO1 241714Z 04007KT 14/05 A3012 RMK A01 T01420051  RH  054%=      5-min Rain = 0
KGO1 241715Z 05006KT 14/05 A3012 RMK A01 T01440048  RH  052%=      5-min Rain = 0
KGO1 241716Z 05007KT 14/05 A3012 RMK A01 T01440048  RH  052%=      5-min Rain = 0
KGO1 241717Z 05006KT 14/05 A3012 RMK A01 T01440050  RH  053%=      5-min Rain = 0
KGO1 241718Z 05005KT 15/05 A3011 RMK A01 T01450052  RH  054%=      5-min Rain = 0
KGO1 241719Z 05005KT 15/06 A3011 RMK A01 T01460058  RH  055%=      5-min Rain = 0
KGO1 241720Z 06005KT 15/05 A3011 RMK A01 T01490053  RH  053%=      5-min Rain = 0
KGO1 241721Z 04007KT 15/05 A3011 RMK A01 T01480052  RH  053%=      5-min Rain = 0
KGO1 241722Z 02005KT 15/05 A3011 RMK A01 T01480052  RH  053%=      5-min Rain = 0
KGO1 241723Z 00007KT 15/05 A3011 RMK A01 T01470053  RH  053%=      5-min Rain = 0
KGO1 241724Z 02009KT 15/06 A3011 RMK A01 T01480056  RH  054%=      5-min Rain = 0
KGO1 241725Z 03009KT 15/05 A3011 RMK A01 T01480053  RH  053%=      5-min Rain = 0
KGO1 241726Z 03008KT 15/06 A3011 RMK A01 T01480055  RH  054%=      5-min Rain = 0
KGO1 241727Z 04005KT 15/06 A3011 RMK A01 T01510059  RH  054%=      5-min Rain = 0
KGO1 241728Z 04004KT 15/05 A3011 RMK A01 T01520050  RH  050%=      5-min Rain = 0
KGO1 241729Z 05004KT 15/05 A3011 RMK A01 T01500053  RH  052%=      5-min Rain = 0
KGO1 241730Z 02006KT 15/06 A3011 RMK A01 T01500055  RH  053%=      5-min Rain = 0
KGO1 241731Z 00007KT 15/06 A3012 RMK A01 T01520059  RH  054%=      5-min Rain = 0
KGO1 241732Z 02007KT 15/05 A3012 RMK A01 T01520053  RH  052%=      5-min Rain = 0
KGO1 241733Z 03006KT 15/06 A3012 RMK A01 T01510057  RH  054%=      5-min Rain = 0
KGO1 241734Z 03004KT 15/05 A3012 RMK A01 T01520054  RH  052%=      5-min Rain = 0
KGO1 241735Z 03003KT 15/05 A3012 RMK A01 T01510053  RH  052%=      5-min Rain = 0
KGO1 241736Z 02004KT 15/05 A3011 RMK A01 T01510054  RH  052%=      5-min Rain = 0
KGO1 241737Z 02006KT 15/06 A3011 RMK A01 T01510055  RH  053%=      5-min Rain = 0
KGO1 241738Z 02006KT 15/05 A3011 RMK A01 T01500051  RH  052%=      5-min Rain = 0
KGO1 241739Z 01007KT 15/06 A3011 RMK A01 T01490059  RH  055%=      5-min Rain = 0
KGO1 241740Z 04006KT 15/06 A3011 RMK A01 T01510055  RH  053%=      5-min Rain = 0
KGO1 241741Z 03005KT 15/06 A3011 RMK A01 T01520061  RH  054%=      5-min Rain = 0
KGO1 241742Z 02006KT 16/06 A3011 RMK A01 T01560060  RH  053%=      5-min Rain = 0
KGO1 241743Z 03004KT 16/06 A3011 RMK A01 T01570057  RH  051%=      5-min Rain = 0
KGO1 241744Z 04005KT 16/06 A3011 RMK A01 T01570058  RH  052%=      5-min Rain = 0
KGO1 241745Z 06004KT 16/05 A3012 RMK A01 T01550052  RH  050%=      5-min Rain = 0
KGO1 241746Z 05005KT 16/06 A3012 RMK A01 T01550058  RH  052%=      5-min Rain = 0
KGO1 241747Z 01006KT 16/06 A3012 RMK A01 T01550058  RH  052%=      5-min Rain = 0
KGO1 241748Z 01008KT 16/06 A3011 RMK A01 T01550055  RH  051%=      5-min Rain = 0
KGO1 241749Z 36006KT 16/06 A3011 RMK A01 T01550055  RH  051%=      5-min Rain = 0
KGO1 241750Z 02007G12KT 15/06 A3011 RMK A01 T01540056  RH  052%=      5-min Rain = 0
KGO1 241751Z 03007KT 16/06 A3011 RMK A01 T01550056  RH  052%=      5-min Rain = 0
KGO1 241752Z 04005KT 16/05 A3011 RMK A01 T01560051  RH  050%=      5-min Rain = 0
KGO1 241753Z 03003KT 16/05 A3011 RMK A01 T01550049  RH  049%=      5-min Rain = 0
KGO1 241754Z 00006KT 16/05 A3011 RMK A01 T01550053  RH  051%=      5-min Rain = 0
KGO1 241755Z 02005KT 16/05 A3011 RMK A01 T01550053  RH  051%=      5-min Rain = 0
KGO1 241756Z 05006KT 16/06 A3011 RMK A01 T01560057  RH  052%=      5-min Rain = 0
KGO1 241757Z 04006G11KT 16/05 A3011 RMK A01 T01580054  RH  050%=      5-min Rain = 0
KGO1 241758Z 03009KT 16/05 A3011 RMK A01 T01580052  RH  049%=      5-min Rain = 0
KGO1 241759Z 03006KT 16/05 A3011 RMK A01 T01580053  RH  050%=      5-min Rain = 0
KGO1 241800Z 01006KT 16/06 A3011 RMK A01 T01580057  RH  051%=      5-min Rain = 0
KGO1 241801Z 01007KT 16/06 A3011 RMK A01 T01590055  RH  050%=      5-min Rain = 0
KGO1 241802Z 01006KT 16/06 A3011 RMK A01 T01580055  RH  050%=      5-min Rain = 0
KGO1 241803Z 02005KT 16/05 A3011 RMK A01 T01580051  RH  049%=      5-min Rain = 0
KGO1 241804Z 04004KT 16/05 A3011 RMK A01 T01580049  RH  048%=      5-min Rain = 0
KGO1 241805Z 04002KT 16/05 A3011 RMK A01 T01560050  RH  049%=      5-min Rain = 0
KGO1 241806Z 34003KT 16/05 A3011 RMK A01 T01560050  RH  049%=      5-min Rain = 0
KGO1 241807Z 05003KT 16/05 A3011 RMK A01 T01570050  RH  049%=      5-min Rain = 0
KGO1 241808Z 02006KT 16/05 A3011 RMK A01 T01580054  RH  050%=      5-min Rain = 0
KGO1 241809Z 02005KT 16/05 A3011 RMK A01 T01580049  RH  048%=      5-min Rain = 0
KGO1 241810Z 02006KT 16/06 A3011 RMK A01 T01570055  RH  050%=      5-min Rain = 0
KGO1 241811Z 01005KT 16/05 A3011 RMK A01 T01580053  RH  049%=      5-min Rain = 0
KGO1 241812Z 01004KT 16/05 A3011 RMK A01 T01590051  RH  049%=      5-min Rain = 0
KGO1 241813Z 00007KT 16/05 A3011 RMK A01 T01580051  RH  049%=      5-min Rain = 0
KGO1 241814Z 01006KT 16/05 A3011 RMK A01 T01590052  RH  049%=      5-min Rain = 0
KGO1 241815Z 00004KT 16/05 A3011 RMK A01 T01590051  RH  049%=      5-min Rain = 0
KGO1 241816Z 01003KT 16/05 A3011 RMK A01 T01580046  RH  047%=      5-min Rain = 0
KGO1 241817Z 04002KT 16/05 A3011 RMK A01 T01580051  RH  049%=      5-min Rain = 0
KGO1 241818Z 05004G9KT 16/05 A3011 RMK A01 T01590051  RH  049%=      5-min Rain = 0
KGO1 241819Z 05005KT 16/05 A3011 RMK A01 T01620051  RH  048%=      5-min Rain = 0
KGO1 241820Z 05003KT 16/05 A3011 RMK A01 T01620047  RH  047%=      5-min Rain = 0
KGO1 241821Z 07002KT 16/05 A3011 RMK A01 T01610047  RH  047%=      5-min Rain = 0
KGO1 241822Z 06004KT 16/05 A3011 RMK A01 T01620049  RH  047%=      5-min Rain = 0
KGO1 241823Z 08005KT 16/05 A3011 RMK A01 T01630051  RH  047%=      5-min Rain = 0
KGO1 241824Z 09006KT 16/05 A3011 RMK A01 T01640048  RH  046%=      5-min Rain = 0
KGO1 241825Z 11006KT 16/05 A3011 RMK A01 T01640049  RH  046%=      5-min Rain = 0
KGO1 241826Z 11006KT 16/05 A301 RMK A01 T01640046  RH  046%=      5-min Rain = 0
KGO1 241827Z 10005KT 16/05 A301 RMK A01 T01630045  RH  045%=      5-min Rain = 0
KGO1 241828Z 06007KT 16/05 A301 RMK A01 T01630046  RH  046%=      5-min Rain = 0
KGO1 241829Z 06007KT 16/04 A301 RMK A01 T01630042  RH  045%=      5-min Rain = 0
KGO1 241830Z 06004KT 16/04 A301 RMK A01 T01630036  RH  043%=      5-min Rain = 0
KGO1 241831Z 08003KT 16/05 A301 RMK A01 T01630046  RH  046%=      5-min Rain = 0
KGO1 241832Z 08005KT 17/05 A3011 RMK A01 T01650047  RH  045%=      5-min Rain = 0
KGO1 241833Z 06003KT 17/04 A3011 RMK A01 T01650036  RH  042%=      5-min Rain = 0
KGO1 241834Z 09002KT 16/04 A3011 RMK A01 T01620036  RH  043%=      5-min Rain = 0
KGO1 241835Z 07003KT 16/05 A3011 RMK A01 T01630046  RH  046%=      5-min Rain = 0
KGO1 241836Z 06006KT 17/05 A3011 RMK A01 T01670047  RH  045%=      5-min Rain = 0
KGO1 241837Z 06006KT 17/04 A3011 RMK A01 T01680042  RH  043%=      5-min Rain = 0
KGO1 241838Z 05005KT 17/04 A3011 RMK A01 T01670042  RH  043%=      5-min Rain = 0
KGO1 241839Z 05005KT 17/04 A3011 RMK A01 T01670039  RH  043%=      5-min Rain = 0
KGO1 241840Z 06005KT 17/04 A3011 RMK A01 T01660036  RH  042%=      5-min Rain = 0
KGO1 241841Z 06004KT 17/04 A3011 RMK A01 T01650037  RH  042%=      5-min Rain = 0
KGO1 241842Z 05005KT 17/04 A3011 RMK A01 T01650041  RH  044%=      5-min Rain = 0
KGO1 241843Z 06004KT 17/04 A3011 RMK A01 T01660042  RH  044%=      5-min Rain = 0
KGO1 241844Z 08006KT 17/05 A3011 RMK A01 T01690046  RH  044%=      5-min Rain = 0
KGO1 241845Z 08005KT 17/04 A3011 RMK A01 T01710041  RH  042%=      5-min Rain = 0
KGO1 241846Z 07006KT 17/05 A3011 RMK A01 T01710045  RH  043%=      5-min Rain = 0
KGO1 241847Z 08005KT 17/05 A301 RMK A01 T01720047  RH  044%=      5-min Rain = 0
KGO1 241848Z 08005KT 17/05 A301 RMK A01 T01740047  RH  043%=      5-min Rain = 0
KGO1 241849Z 08005KT 18/05 A301 RMK A01 T01750051  RH  044%=      5-min Rain = 0
KGO1 241850Z 10004KT 18/05 A301 RMK A01 T01770050  RH  043%=      5-min Rain = 0
KGO1 241851Z 09007KT 18/05 A301 RMK A01 T01790048  RH  042%=      5-min Rain = 0
KGO1 241852Z 09006KT 18/04 A301 RMK A01 T01770035  RH  039%=      5-min Rain = 0
KGO1 241853Z 09008KT 17/04 A301 RMK A01 T01740039  RH  041%=      5-min Rain = 0
KGO1 241854Z 08007KT 17/04 A301 RMK A01 T01730041  RH  041%=      5-min Rain = 0
KGO1 241855Z 08006KT 17/04 A301 RMK A01 T01730038  RH  041%=      5-min Rain = 0
KGO1 241856Z 09004KT 17/04 A301 RMK A01 T01730042  RH  042%=      5-min Rain = 0
KGO1 241857Z 08008KT 18/04 A301 RMK A01 T01750044  RH  042%=      5-min Rain = 0
KGO1 241858Z 09009KT 17/04 A301 RMK A01 T01740044  RH  042%=      5-min Rain = 0
KGO1 241859Z 09007KT 17/04 A301 RMK A01 T01720037  RH  041%=      5-min Rain = 0
KGO1 241900Z 09005KT 17/04 A301 RMK A01 T01690035  RH  041%=      5-min Rain = 0
KGO1 241901Z 11005KT 17/03 A301 RMK A01 T01670033  RH  041%=      5-min Rain = 0
KGO1 241902Z 07006KT 17/04 A301 RMK A01 T01670042  RH  043%=      5-min Rain = 0
KGO1 241903Z 05008KT 17/04 A301 RMK A01 T01700042  RH  043%=      5-min Rain = 0
KGO1 241904Z 05006KT 17/04 A301 RMK A01 T01710040  RH  042%=      5-min Rain = 0
KGO1 241905Z 06006KT 17/04 A301 RMK A01 T01720038  RH  041%=      5-min Rain = 0
KGO1 241906Z 10008KT 17/05 A301 RMK A01 T01720048  RH  044%=      5-min Rain = 0
KGO1 241907Z 08008KT 17/05 A301 RMK A01 T01730047  RH  043%=      5-min Rain = 0
KGO1 241908Z 09007KT 17/04 A301 RMK A01 T01720037  RH  041%=      5-min Rain = 0
KGO1 241909Z 08006KT 17/03 A3009 RMK A01 T01690033  RH  040%=      5-min Rain = 0
KGO1 241910Z 08008KT 17/04 A3009 RMK A01 T01680037  RH  042%=      5-min Rain = 0
KGO1 241911Z 08006KT 17/04 A3009 RMK A01 T01700043  RH  043%=      5-min Rain = 0
KGO1 241912Z 08004KT 17/05 A3009 RMK A01 T01740046  RH  043%=      5-min Rain = 0
KGO1 241913Z 08005KT 18/04 A301 RMK A01 T01760037  RH  039%=      5-min Rain = 0
KGO1 241914Z 07006KT 18/04 A301 RMK A01 T01750038  RH  040%=      5-min Rain = 0
KGO1 241915Z 08004KT 17/04 A301 RMK A01 T01740037  RH  040%=      5-min Rain = 0
KGO1 241916Z 08004KT 17/03 A301 RMK A01 T01720032  RH  039%=      5-min Rain = 0
KGO1 241917Z 09004KT 17/04 A301 RMK A01 T01720035  RH  040%=      5-min Rain = 0
KGO1 241918Z 09005KT 17/04 A301 RMK A01 T01710040  RH  042%=      5-min Rain = 0
KGO1 241919Z 08004KT 17/04 A3009 RMK A01 T01720038  RH  041%=      5-min Rain = 0
KGO1 241920Z 08005KT 17/04 A3009 RMK A01 T01720038  RH  041%=      5-min Rain = 0
KGO1 241921Z 09006KT 17/04 A3009 RMK A01 T01720040  RH  041%=      5-min Rain = 0
KGO1 241922Z 11005KT 17/04 A3009 RMK A01 T01720040  RH  042%=      5-min Rain = 0
KGO1 241923Z 09007KT 17/04 A3009 RMK A01 T01730042  RH  042%=      5-min Rain = 0
KGO1 241924Z 08007KT 17/05 A3009 RMK A01 T01730047  RH  043%=      5-min Rain = 0
KGO1 241925Z 07005KT 17/04 A3009 RMK A01 T01730042  RH  042%=      5-min Rain = 0
KGO1 241926Z 09006KT 17/05 A3009 RMK A01 T01730049  RH  044%=      5-min Rain = 0
KGO1 241927Z 09007KT 18/06 A3009 RMK A01 T01760056  RH  045%=      5-min Rain = 0
KGO1 241928Z 10006KT 18/05 A3009 RMK A01 T01790054  RH  044%=      5-min Rain = 0
KGO1 241929Z 10006KT 18/05 A3009 RMK A01 T01800047  RH  041%=      5-min Rain = 0
KGO1 241930Z 09005KT 18/05 A3009 RMK A01 T01800048  RH  042%=      5-min Rain = 0
KGO1 241931Z 08004KT 18/06 A3009 RMK A01 T01800056  RH  044%=      5-min Rain = 0
KGO1 241932Z 08006KT 18/05 A3009 RMK A01 T01820050  RH  042%=      5-min Rain = 0
KGO1 241933Z 05008KT 18/05 A3009 RMK A01 T01820045  RH  040%=      5-min Rain = 0
KGO1 241934Z 06008KT 18/04 A3009 RMK A01 T01810043  RH  040%=      5-min Rain = 0
KGO1 241935Z 07005KT 18/04 A3009 RMK A01 T01800043  RH  040%=      5-min Rain = 0
KGO1 241936Z 05006KT 18/05 A3009 RMK A01 T01800045  RH  041%=      5-min Rain = 0
KGO1 241937Z 06005KT 18/04 A3009 RMK A01 T01810041  RH  039%=      5-min Rain = 0
KGO1 241938Z 04005KT 18/05 A3009 RMK A01 T01820046  RH  041%=      5-min Rain = 0
KGO1 241939Z 06004KT 18/04 A3009 RMK A01 T01820041  RH  039%=      5-min Rain = 0
KGO1 241940Z 05005KT 18/05 A3009 RMK A01 T01820048  RH  041%=      5-min Rain = 0
KGO1 241941Z 05007KT 18/05 A3009 RMK A01 T01840045  RH  040%=      5-min Rain = 0
KGO1 241942Z 05005KT 18/04 A3009 RMK A01 T01820039  RH  038%=      5-min Rain = 0
KGO1 241943Z 04007KT 18/04 A3009 RMK A01 T01800040  RH  039%=      5-min Rain = 0
KGO1 241944Z 02005KT 18/04 A3009 RMK A01 T01800040  RH  039%=      5-min Rain = 0
KGO1 241945Z 03003KT 18/04 A3009 RMK A01 T01790042  RH  040%=      5-min Rain = 0
KGO1 241946Z 04007KT 18/04 A3009 RMK A01 T01790044  RH  041%=      5-min Rain = 0
KGO1 241947Z 01006KT 18/05 A3009 RMK A01 T01820045  RH  040%=      5-min Rain = 0
KGO1 241948Z 01005KT 18/05 A3009 RMK A01 T01830048  RH  041%=      5-min Rain = 0
KGO1 241949Z 01006KT 18/05 A3009 RMK A01 T01840049  RH  041%=      5-min Rain = 0
KGO1 241950Z 01006KT 18/04 A3009 RMK A01 T01840044  RH  040%=      5-min Rain = 0
KGO1 241951Z 03007KT 18/05 A3009 RMK A01 T01830049  RH  041%=      5-min Rain = 0
KGO1 241952Z 04005KT 18/04 A3009 RMK A01 T01820038  RH  038%=      5-min Rain = 0
KGO1 241953Z 00003KT 18/04 A3009 RMK A01 T01790035  RH  038%=      5-min Rain = 0
KGO1 241954Z 01003KT 18/03 A3009 RMK A01 T01770034  RH  038%=      5-min Rain = 0
KGO1 241955Z 04004KT 18/03 A3009 RMK A01 T01760032  RH  038%=      5-min Rain = 0
KGO1 241956Z 05004KT 18/04 A3009 RMK A01 T01750035  RH  039%=      5-min Rain = 0
KGO1 241957Z 03007KT 18/05 A3009 RMK A01 T01790046  RH  041%=      5-min Rain = 0
KGO1 241958Z 02007KT 18/04 A3009 RMK A01 T01820042  RH  039%=      5-min Rain = 0
KGO1 241959Z 04006KT 18/04 A3009 RMK A01 T01810035  RH  038%=      5-min Rain = 0
KGO1 242000Z 05003KT 18/04 A3008 RMK A01 T01800038  RH  039%=      5-min Rain = 0
KGO1 242001Z 36002KT 18/04 A3008 RMK A01 T01800038  RH  039%=      5-min Rain = 0
KGO1 242002Z 02001KT 18/03 A3008 RMK A01 T01780032  RH  038%=      5-min Rain = 0
KGO1 242003Z 02004KT 18/04 A3008 RMK A01 T01770036  RH  039%=      5-min Rain = 0
KGO1 242004Z 01004KT 18/04 A3008 RMK A01 T01760035  RH  039%=      5-min Rain = 0
KGO1 242005Z 02003KT 18/04 A3008 RMK A01 T01760040  RH  040%=      5-min Rain = 0
KGO1 242006Z 03005KT 18/04 A3008 RMK A01 T01780040  RH  040%=      5-min Rain = 0
KGO1 242007Z 03006KT 18/04 A3008 RMK A01 T01800043  RH  040%=      5-min Rain = 0
KGO1 242008Z 03004KT 18/05 A3008 RMK A01 T01820046  RH  041%=      5-min Rain = 0
KGO1 242009Z 05004KT 18/04 A3008 RMK A01 T01820043  RH  040%=      5-min Rain = 0
KGO1 242010Z 07005KT 18/05 A3008 RMK A01 T01810045  RH  041%=      5-min Rain = 0
KGO1 242011Z 05007KT 18/05 A3008 RMK A01 T01800048  RH  042%=      5-min Rain = 0
KGO1 242012Z 04005KT 18/05 A3008 RMK A01 T01800045  RH  041%=      5-min Rain = 0
KGO1 242013Z 04006KT 18/05 A3007 RMK A01 T01810054  RH  043%=      5-min Rain = 0
KGO1 242014Z 05007KT 18/04 A3007 RMK A01 T01830043  RH  040%=      5-min Rain = 0
KGO1 242015Z 04005KT 18/04 A3007 RMK A01 T01800041  RH  040%=      5-min Rain = 0
KGO1 242016Z 07004KT 18/04 A3007 RMK A01 T01790043  RH  040%=      5-min Rain = 0
KGO1 242017Z 07003KT 18/04 A3007 RMK A01 T01790038  RH  039%=      5-min Rain = 0
KGO1 242018Z 10003KT 18/04 A3007 RMK A01 T01770037  RH  039%=      5-min Rain = 0
KGO1 242019Z 11001KT 18/03 A3007 RMK A01 T01750032  RH  038%=      5-min Rain = 0
KGO1 242020Z 08006KT 17/04 A3007 RMK A01 T01740044  RH  042%=      5-min Rain = 0
KGO1 242021Z 07005KT 17/04 A3007 RMK A01 T01740039  RH  041%=      5-min Rain = 0
KGO1 242022Z 07002KT 17/03 A3007 RMK A01 T01730034  RH  039%=      5-min Rain = 0
KGO1 242023Z 07002KT 17/04 A3007 RMK A01 T01730039  RH  041%=      5-min Rain = 0
KGO1 242024Z 05003KT 17/04 A3007 RMK A01 T01730044  RH  042%=      5-min Rain = 0
KGO1 242025Z 06005KT 17/04 A3007 RMK A01 T01740042  RH  042%=      5-min Rain = 0
KGO1 242026Z 05005KT 17/05 A3007 RMK A01 T01740047  RH  043%=      5-min Rain = 0
KGO1 242027Z 04006KT 18/05 A3007 RMK A01 T01750049  RH  043%=      5-min Rain = 0
KGO1 242028Z 04007KT 18/05 A3007 RMK A01 T01760046  RH  042%=      5-min Rain = 0
KGO1 242029Z 01007KT 18/05 A3007 RMK A01 T01760050  RH  043%=      5-min Rain = 0
KGO1 242030Z 01006KT 18/05 A3007 RMK A01 T01760049  RH  043%=      5-min Rain = 0
KGO1 242031Z 03004KT 18/05 A3007 RMK A01 T01750051  RH  044%=      5-min Rain = 0
KGO1 242032Z 08002KT 18/05 A3007 RMK A01 T01760046  RH  042%=      5-min Rain = 0
KGO1 242033Z 07002KT 18/04 A3007 RMK A01 T01760044  RH  041%=      5-min Rain = 0
KGO1 242034Z 01003KT 18/04 A3007 RMK A01 T01770044  RH  042%=      5-min Rain = 0
KGO1 242035Z 04004KT 18/04 A3007 RMK A01 T01760044  RH  041%=      5-min Rain = 0
KGO1 242036Z 04004KT 18/04 A3007 RMK A01 T01770042  RH  041%=      5-min Rain = 0
KGO1 242037Z 04004KT 18/04 A3007 RMK A01 T01760044  RH  042%=      5-min Rain = 0
KGO1 242038Z 03003KT 18/04 A3007 RMK A01 T01760044  RH  041%=      5-min Rain = 0
KGO1 242039Z 01004KT 18/05 A3007 RMK A01 T01770047  RH  042%=      5-min Rain = 0
KGO1 242040Z 02005KT 18/05 A3007 RMK A01 T01770047  RH  042%=      5-min Rain = 0
KGO1 242041Z 05005KT 18/04 A3008 RMK A01 T01770042  RH  041%=      5-min Rain = 0
KGO1 242042Z 02006KT 18/05 A3008 RMK A01 T01780046  RH  042%=      5-min Rain = 0
KGO1 242043Z 03004KT 18/04 A3008 RMK A01 T01770038  RH  040%=      5-min Rain = 0
KGO1 242044Z 04006KT 18/04 A3007 RMK A01 T01760041  RH  041%=      5-min Rain = 0
KGO1 242045Z 06006KT 18/04 A3007 RMK A01 T01760043  RH  041%=      5-min Rain = 0
KGO1 242046Z 04006KT 18/04 A3007 RMK A01 T01770044  RH  041%=      5-min Rain = 0
KGO1 242047Z 05006KT 18/05 A3007 RMK A01 T01770048  RH  042%=      5-min Rain = 0
KGO1 242048Z 05004KT 18/05 A3008 RMK A01 T01780050  RH  043%=      5-min Rain = 0
KGO1 242049Z 07004KT 18/05 A3008 RMK A01 T01790047  RH  042%=      5-min Rain = 0
KGO1 242050Z 08003KT 18/04 A3008 RMK A01 T01780042  RH  040%=      5-min Rain = 0
KGO1 242051Z 06003KT 18/05 A3008 RMK A01 T01780048  RH  042%=      5-min Rain = 0
KGO1 242052Z 04003KT 18/04 A3008 RMK A01 T01780040  RH  040%=      5-min Rain = 0
KGO1 242053Z 05003KT 18/04 A3008 RMK A01 T01780043  RH  041%=      5-min Rain = 0
KGO1 242054Z 05005KT 18/04 A3008 RMK A01 T01780044  RH  041%=      5-min Rain = 0
KGO1 242055Z 02003KT 18/04 A3008 RMK A01 T01770041  RH  040%=      5-min Rain = 0
KGO1 242056Z 03002KT 18/04 A3007 RMK A01 T01760041  RH  041%=      5-min Rain = 0
KGO1 242057Z 05004KT 18/04 A3007 RMK A01 T01760043  RH  041%=      5-min Rain = 0
KGO1 242058Z 04004KT 18/05 A3007 RMK A01 T01760045  RH  042%=      5-min Rain = 0
KGO1 242059Z 03003KT 18/05 A3007 RMK A01 T01760045  RH  042%=      5-min Rain = 0
KGO1 242100Z 03003KT 18/05 A3007 RMK A01 T01760048  RH  043%=      5-min Rain = 0
KGO1 242101Z 03004KT 18/05 A3007 RMK A01 T01780050  RH  043%=      5-min Rain = 0
KGO1 242102Z 03005KT 18/05 A3007 RMK A01 T01780045  RH  041%=      5-min Rain = 0
KGO1 242103Z 05004KT 18/04 A3007 RMK A01 T01770043  RH  041%=      5-min Rain = 0
KGO1 242104Z 04003KT 18/04 A3007 RMK A01 T01750041  RH  041%=      5-min Rain = 0
KGO1 242105Z 04005KT 18/04 A3007 RMK A01 T01750043  RH  042%=      5-min Rain = 0
KGO1 242106Z 04005KT 18/05 A3007 RMK A01 T01750046  RH  042%=      5-min Rain = 0
KGO1 242107Z 04005KT 18/05 A3007 RMK A01 T01770049  RH  043%=      5-min Rain = 0
KGO1 242108Z 04003KT 18/05 A3007 RMK A01 T01800048  RH  042%=      5-min Rain = 0
KGO1 242109Z 07005KT 18/05 A3007 RMK A01 T01820051  RH  042%=      5-min Rain = 0
KGO1 242110Z 11005KT 18/05 A3007 RMK A01 T01840053  RH  042%=      5-min Rain = 0
KGO1 242111Z 11004KT 18/05 A3007 RMK A01 T01840046  RH  040%=      5-min Rain = 0
KGO1 242112Z 11003KT 18/04 A3007 RMK A01 T01820041  RH  039%=      5-min Rain = 0
KGO1 242113Z 09004KT 18/04 A3007 RMK A01 T01800044  RH  040%=      5-min Rain = 0
KGO1 242114Z 07004KT 18/05 A3007 RMK A01 T01820051  RH  042%=      5-min Rain = 0
KGO1 242115Z 08005KT 18/05 A3007 RMK A01 T01840048  RH  041%=      5-min Rain = 0
KGO1 242116Z 10004KT 18/05 A3007 RMK A01 T01840049  RH  041%=      5-min Rain = 0
KGO1 242117Z 08003KT 18/05 A3007 RMK A01 T01840049  RH  041%=      5-min Rain = 0
KGO1 242118Z 07003KT 19/04 A3007 RMK A01 T01850043  RH  039%=      5-min Rain = 0
KGO1 242119Z 07002KT 18/04 A3007 RMK A01 T01830042  RH  039%=      5-min Rain = 0
KGO1 242120Z 04002KT 18/04 A3007 RMK A01 T01820043  RH  040%=      5-min Rain = 0
KGO1 242121Z 04004KT 18/05 A3007 RMK A01 T01830046  RH  040%=      5-min Rain = 0
KGO1 242122Z 07002KT 18/04 A3007 RMK A01 T01830042  RH  039%=      5-min Rain = 0
KGO1 242123Z 09002KT 18/05 A3007 RMK A01 T01820046  RH  041%=      5-min Rain = 0
KGO1 242124Z 11002KT 18/05 A3007 RMK A01 T01830047  RH  041%=      5-min Rain = 0
KGO1 242125Z 13001KT 18/05 A3007 RMK A01 T01840046  RH  040%=      5-min Rain = 0
KGO1 242126Z 12001KT 19/05 A3007 RMK A01 T01850049  RH  041%=      5-min Rain = 0
KGO1 242127Z 08002KT 19/05 A3007 RMK A01 T01870053  RH  041%=      5-min Rain = 0
KGO1 242128Z 11006KT 19/06 A3007 RMK A01 T01890059  RH  042%=      5-min Rain = 0
KGO1 242129Z 10004KT 19/06 A3007 RMK A01 T01900061  RH  043%=      5-min Rain = 0
KGO1 242130Z 10005KT 19/06 A3007 RMK A01 T01910060  RH  042%=      5-min Rain = 0
KGO1 242131Z 13005KT 19/05 A3007 RMK A01 T01900048  RH  039%=      5-min Rain = 0
KGO1 242132Z 13005KT 19/05 A3007 RMK A01 T01870045  RH  039%=      5-min Rain = 0
KGO1 242133Z 09002KT 19/04 A3007 RMK A01 T01860043  RH  039%=      5-min Rain = 0
KGO1 242134Z 11004KT 19/05 A3007 RMK A01 T01860046  RH  040%=      5-min Rain = 0
KGO1 242135Z 15002KT 19/04 A3007 RMK A01 T01850044  RH  039%=      5-min Rain = 0
KGO1 242136Z 17003KT 18/04 A3007 RMK A01 T01840044  RH  040%=      5-min Rain = 0
KGO1 242137Z 14002KT 19/05 A3007 RMK A01 T01850051  RH  041%=      5-min Rain = 0
KGO1 242138Z 12003KT 19/05 A3007 RMK A01 T01870050  RH  041%=      5-min Rain = 0
KGO1 242139Z 09002KT 19/05 A3007 RMK A01 T01870051  RH  041%=      5-min Rain = 0
KGO1 242140Z 09004KT 19/05 A3007 RMK A01 T01870053  RH  041%=      5-min Rain = 0
KGO1 242141Z 09005KT 19/05 A3007 RMK A01 T01870052  RH  041%=      5-min Rain = 0
KGO1 242142Z 11005KT 19/06 A3007 RMK A01 T01870056  RH  042%=      5-min Rain = 0
KGO1 242143Z 12007KT 19/06 A3007 RMK A01 T01870058  RH  043%=      5-min Rain = 0
KGO1 242144Z 12006KT 19/06 A3007 RMK A01 T01880059  RH  043%=      5-min Rain = 0
KGO1 242145Z 14006KT 19/05 A3007 RMK A01 T01890053  RH  041%=      5-min Rain = 0
KGO1 242146Z 14007KT 19/05 A3007 RMK A01 T01880052  RH  041%=      5-min Rain = 0
KGO1 242147Z 15004KT 19/05 A3007 RMK A01 T01870052  RH  041%=      5-min Rain = 0
KGO1 242148Z 14005KT 19/05 A3007 RMK A01 T01870045  RH  039%=      5-min Rain = 0
KGO1 242149Z 13004KT 19/05 A3007 RMK A01 T01860047  RH  040%=      5-min Rain = 0
KGO1 242150Z 12006KT 19/06 A3007 RMK A01 T01870056  RH  042%=      5-min Rain = 0
KGO1 242151Z 10006KT 19/06 A3006 RMK A01 T01860061  RH  044%=      5-min Rain = 0
KGO1 242152Z 07005KT 19/05 A3007 RMK A01 T01870049  RH  040%=      5-min Rain = 0
KGO1 242153Z 08004KT 19/05 A3007 RMK A01 T01860047  RH  040%=      5-min Rain = 0
KGO1 242154Z 08004KT 19/04 A3007 RMK A01 T01850044  RH  039%=      5-min Rain = 0
KGO1 242155Z 10003KT 18/05 A3007 RMK A01 T01830052  RH  042%=      5-min Rain = 0
KGO1 242156Z 09003KT 18/05 A3007 RMK A01 T01840052  RH  042%=      5-min Rain = 0
KGO1 242157Z 14003KT 19/05 A3007 RMK A01 T01850051  RH  041%=      5-min Rain = 0
KGO1 242158Z 14007KT 19/05 A3007 RMK A01 T01860054  RH  042%=      5-min Rain = 0
KGO1 242159Z 15007KT 19/06 A3007 RMK A01 T01880063  RH  044%=      5-min Rain = 0
KGO1 242200Z 16005KT 19/05 A3007 RMK A01 T01900054  RH  041%=      5-min Rain = 0
KGO1 242201Z 15004KT 19/05 A3007 RMK A01 T01900052  RH  040%=      5-min Rain = 0
KGO1 242202Z 17005KT 19/06 A3007 RMK A01 T01900055  RH  041%=      5-min Rain = 0
KGO1 242203Z 17004KT 19/06 A3007 RMK A01 T01910056  RH  041%=      5-min Rain = 0
KGO1 242204Z 19004KT 19/05 A3007 RMK A01 T01910050  RH  040%=      5-min Rain = 0
KGO1 242205Z 16003KT 19/05 A3007 RMK A01 T01890048  RH  039%=      5-min Rain = 0
KGO1 242206Z 14005KT 19/05 A3007 RMK A01 T01890050  RH  040%=      5-min Rain = 0
KGO1 242207Z 14006KT 19/06 A3007 RMK A01 T01880057  RH  042%=      5-min Rain = 0
KGO1 242208Z 13005KT 19/05 A3007 RMK A01 T01880046  RH  039%=      5-min Rain = 0
KGO1 242209Z 10003KT 19/05 A3007 RMK A01 T01880046  RH  039%=      5-min Rain = 0
KGO1 242210Z 09007KT 19/05 A3007 RMK A01 T01870049  RH  040%=      5-min Rain = 0
KGO1 242211Z 11008KT 19/05 A3007 RMK A01 T01870053  RH  041%=      5-min Rain = 0
KGO1 242212Z 13005KT 19/05 A3007 RMK A01 T01860049  RH  040%=      5-min Rain = 0
KGO1 242213Z 16005KT 19/05 A3007 RMK A01 T01860052  RH  041%=      5-min Rain = 0
KGO1 242214Z 16004KT 19/05 A3007 RMK A01 T01860047  RH  040%=      5-min Rain = 0
KGO1 242215Z 16004KT 19/05 A3007 RMK A01 T01870053  RH  041%=      5-min Rain = 0
KGO1 242216Z 14005KT 19/05 A3007 RMK A01 T01880054  RH  041%=      5-min Rain = 0
KGO1 242217Z 13005KT 19/05 A3007 RMK A01 T01890049  RH  040%=      5-min Rain = 0
KGO1 242218Z 12002KT 19/04 A3007 RMK A01 T01890041  RH  038%=      5-min Rain = 0
KGO1 242219Z 08000KT 19/04 A3007 RMK A01 T01870041  RH  038%=      5-min Rain = 0
KGO1 242220Z 08001KT 19/04 A3006 RMK A01 T01880042  RH  038%=      5-min Rain = 0
KGO1 242221Z 18002KT 19/05 A3006 RMK A01 T01890046  RH  039%=      5-min Rain = 0
KGO1 242222Z 09002KT 19/05 A3006 RMK A01 T01900052  RH  040%=      5-min Rain = 0
KGO1 242223Z 11004KT 19/05 A3006 RMK A01 T01910049  RH  039%=      5-min Rain = 0
KGO1 242224Z 11005KT 19/05 A3006 RMK A01 T01900052  RH  040%=      5-min Rain = 0
KGO1 242225Z 10008KT 19/06 A3006 RMK A01 T01900059  RH  042%=      5-min Rain = 0
KGO1 242226Z 10007KT 19/06 A3006 RMK A01 T01900057  RH  042%=      5-min Rain = 0
KGO1 242227Z 10007KT 19/06 A3006 RMK A01 T01880056  RH  042%=      5-min Rain = 0
KGO1 242228Z 09005KT 19/06 A3006 RMK A01 T01870055  RH  042%=      5-min Rain = 0
KGO1 242229Z 12004KT 19/06 A3006 RMK A01 T01880061  RH  043%=      5-min Rain = 0
KGO1 242230Z 13004KT 19/05 A3006 RMK A01 T01890050  RH  040%=      5-min Rain = 0
KGO1 242231Z 11006KT 19/05 A3006 RMK A01 T01890052  RH  040%=      5-min Rain = 0
KGO1 242232Z 09007KT 19/06 A3006 RMK A01 T01890055  RH  041%=      5-min Rain = 0
KGO1 242233Z 08006KT 19/05 A3006 RMK A01 T01890054  RH  041%=      5-min Rain = 0
KGO1 242234Z 08004KT 19/05 A3006 RMK A01 T01890051  RH  040%=      5-min Rain = 0
KGO1 242235Z 11003KT 19/05 A3006 RMK A01 T01900053  RH  041%=      5-min Rain = 0
KGO1 242236Z 10003KT 19/05 A3006 RMK A01 T01900052  RH  040%=      5-min Rain = 0
KGO1 242237Z 08002KT 19/05 A3006 RMK A01 T01900046  RH  039%=      5-min Rain = 0
KGO1 242238Z 09001KT 19/04 A3006 RMK A01 T01890041  RH  038%=      5-min Rain = 0
KGO1 242239Z 12000KT 19/04 A3006 RMK A01 T01890043  RH  038%=      5-min Rain = 0
KGO1 242240Z 15001KT 19/04 A3006 RMK A01 T01890043  RH  038%=      5-min Rain = 0
KGO1 242241Z 19003KT 19/04 A3006 RMK A01 T01890044  RH  038%=      5-min Rain = 0
KGO1 242242Z 19002KT 19/04 A3006 RMK A01 T01890043  RH  038%=      5-min Rain = 0
KGO1 242243Z 18003KT 19/05 A3006 RMK A01 T01900045  RH  038%=      5-min Rain = 0
KGO1 242244Z 16002KT 19/05 A3006 RMK A01 T01910050  RH  040%=      5-min Rain = 0
KGO1 242245Z 17004KT 19/05 A3006 RMK A01 T01920052  RH  040%=      5-min Rain = 0
KGO1 242246Z 16005KT 19/05 A3006 RMK A01 T01930049  RH  039%=      5-min Rain = 0
KGO1 242247Z 14005KT 19/05 A3006 RMK A01 T01930051  RH  039%=      5-min Rain = 0
KGO1 242248Z 14003KT 19/04 A3006 RMK A01 T01920043  RH  037%=      5-min Rain = 0
KGO1 242249Z 15004KT 19/04 A3006 RMK A01 T01920043  RH  037%=      5-min Rain = 0
KGO1 242250Z 14003KT 19/04 A3006 RMK A01 T01910040  RH  037%=      5-min Rain = 0
KGO1 242251Z 15004KT 19/04 A3006 RMK A01 T01910038  RH  036%=      5-min Rain = 0
KGO1 242252Z 17003KT 19/04 A3006 RMK A01 T01900039  RH  037%=      5-min Rain = 0
KGO1 242253Z 18002KT 19/04 A3006 RMK A01 T01900035  RH  036%=      5-min Rain = 0
KGO1 242254Z 19002KT 19/04 A3006 RMK A01 T01900036  RH  036%=      5-min Rain = 0
KGO1 242255Z 17002KT 19/04 A3006 RMK A01 T01900036  RH  036%=      5-min Rain = 0
KGO1 242256Z 19003KT 19/04 A3006 RMK A01 T01910040  RH  037%=      5-min Rain = 0
KGO1 242257Z 20003KT 19/04 A3006 RMK A01 T01910043  RH  038%=      5-min Rain = 0
KGO1 242258Z 22002KT 19/03 A3006 RMK A01 T01920032  RH  035%=      5-min Rain = 0
KGO1 242259Z 20002KT 19/04 A3006 RMK A01 T01920039  RH  037%=      5-min Rain = 0
KGO1 242300Z 19003KT 19/04 A3006 RMK A01 T01930040  RH  036%=      5-min Rain = 0
KGO1 242301Z 18004KT 19/04 A3006 RMK A01 T01940043  RH  037%=      5-min Rain = 0
KGO1 242302Z 16003KT 19/04 A3006 RMK A01 T01940043  RH  037%=      5-min Rain = 0
KGO1 242303Z 15004KT 19/04 A3006 RMK A01 T01940040  RH  036%=      5-min Rain = 0
KGO1 242304Z 16004KT 19/04 A3006 RMK A01 T01930039  RH  036%=      5-min Rain = 0
KGO1 242305Z 14004KT 19/04 A3006 RMK A01 T01930041  RH  037%=      5-min Rain = 0
KGO1 242306Z 15003KT 19/04 A3006 RMK A01 T01930039  RH  036%=      5-min Rain = 0
KGO1 242307Z 17003KT 19/04 A3006 RMK A01 T01930039  RH  036%=      5-min Rain = 0
KGO1 242308Z 20002KT 19/04 A3006 RMK A01 T01930037  RH  036%=      5-min Rain = 0
KGO1 242309Z 20001KT 19/03 A3006 RMK A01 T01930031  RH  034%=      5-min Rain = 0
KGO1 242310Z 20002KT 19/04 A3006 RMK A01 T01920043  RH  037%=      5-min Rain = 0
KGO1 242311Z 17002KT 19/05 A3006 RMK A01 T01940047  RH  038%=      5-min Rain = 0
KGO1 242312Z 17003KT 19/04 A3006 RMK A01 T01940042  RH  037%=      5-min Rain = 0
KGO1 242313Z 17004KT 19/05 A3006 RMK A01 T01930045  RH  038%=      5-min Rain = 0
KGO1 242314Z 15003KT 19/04 A3007 RMK A01 T01920036  RH  036%=      5-min Rain = 0
KGO1 242315Z 13004KT 19/04 A3007 RMK A01 T01910044  RH  038%=      5-min Rain = 0
KGO1 242316Z 14004KT 19/05 A3007 RMK A01 T01910047  RH  039%=      5-min Rain = 0
KGO1 242317Z 13004KT 19/05 A3007 RMK A01 T01910050  RH  039%=      5-min Rain = 0
KGO1 242318Z 15004KT 19/05 A3007 RMK A01 T01920049  RH  039%=      5-min Rain = 0
KGO1 242319Z 14003KT 19/05 A3007 RMK A01 T01920049  RH  039%=      5-min Rain = 0
KGO1 242320Z 18003KT 19/04 A3007 RMK A01 T01920044  RH  038%=      5-min Rain = 0
KGO1 242321Z 19001KT 19/05 A3007 RMK A01 T01920048  RH  039%=      5-min Rain = 0
KGO1 242322Z 12001KT 19/05 A3007 RMK A01 T01920047  RH  038%=      5-min Rain = 0
KGO1 242323Z 19002KT 19/04 A3007 RMK A01 T01930043  RH  037%=      5-min Rain = 0
KGO1 242324Z 19002KT 19/04 A3007 RMK A01 T01940040  RH  036%=      5-min Rain = 0
KGO1 242325Z 20001KT 19/04 A3007 RMK A01 T01940041  RH  036%=      5-min Rain = 0
KGO1 242326Z 16001KT 19/04 A3007 RMK A01 T01940044  RH  037%=      5-min Rain = 0
KGO1 242327Z 19002KT 19/04 A3007 RMK A01 T01930043  RH  037%=      5-min Rain = 0
KGO1 242328Z 17002KT 19/04 A3007 RMK A01 T01940039  RH  036%=      5-min Rain = 0
KGO1 242329Z 17002KT 19/04 A3007 RMK A01 T01930041  RH  037%=      5-min Rain = 0
KGO1 242330Z 16002KT 19/04 A3007 RMK A01 T01930039  RH  036%=      5-min Rain = 0
KGO1 242331Z 16002KT 19/04 A3007 RMK A01 T01930038  RH  036%=      5-min Rain = 0
KGO1 242332Z 16001KT 19/04 A3007 RMK A01 T01920039  RH  036%=      5-min Rain = 0
KGO1 242333Z 15000KT 19/03 A3007 RMK A01 T01920033  RH  035%=      5-min Rain = 0
KGO1 242334Z 00000KT 19/04 A3007 RMK A01 T01930035  RH  035%=      5-min Rain = 0
KGO1 242335Z 19000KT 20/04 A3007 RMK A01 T01950040  RH  036%=      5-min Rain = 0
KGO1 242336Z 20000KT 20/04 A3007 RMK A01 T01970037  RH  035%=      5-min Rain = 0
KGO1 242337Z 14000KT 20/04 A3007 RMK A01 T01980042  RH  036%=      5-min Rain = 0
KGO1 242338Z 14002KT 20/04 A3007 RMK A01 T01970041  RH  036%=      5-min Rain = 0
KGO1 242339Z 12003KT 20/04 A3007 RMK A01 T01970044  RH  036%=      5-min Rain = 0
KGO1 242340Z 10002KT 20/04 A3007 RMK A01 T01950041  RH  036%=      5-min Rain = 0
KGO1 242341Z 12002KT 19/04 A3007 RMK A01 T01930037  RH  035%=      5-min Rain = 0
KGO1 242342Z 11002KT 19/04 A3007 RMK A01 T01910035  RH  035%=      5-min Rain = 0
KGO1 242343Z 11001KT 19/04 A3007 RMK A01 T01900039  RH  037%=      5-min Rain = 0
KGO1 242344Z 11001KT 19/04 A3007 RMK A01 T01900035  RH  036%=      5-min Rain = 0
KGO1 242345Z 09001KT 19/04 A3007 RMK A01 T01900039  RH  037%=      5-min Rain = 0
KGO1 242346Z 09000KT 19/04 A3007 RMK A01 T01900035  RH  036%=      5-min Rain = 0
KGO1 242347Z 12001KT 19/04 A3007 RMK A01 T01900039  RH  037%=      5-min Rain = 0
KGO1 242348Z 10002KT 19/04 A3007 RMK A01 T01910040  RH  037%=      5-min Rain = 0
KGO1 242349Z 11003KT 19/04 A3007 RMK A01 T01910038  RH  036%=      5-min Rain = 0
KGO1 242350Z 12002KT 19/03 A3007 RMK A01 T01900033  RH  035%=      5-min Rain = 0
KGO1 242351Z 12000KT 19/03 A3007 RMK A01 T01890031  RH  035%=      5-min Rain = 0
KGO1 242352Z 00000KT 19/03 A3007 RMK A01 T01880032  RH  035%=      5-min Rain = 0
KGO1 242353Z 00000KT 19/03 A3007 RMK A01 T01890030  RH  035%=      5-min Rain = 0
KGO1 242354Z 35000KT 19/03 A3007 RMK A01 T01910034  RH  035%=      5-min Rain = 0
KGO1 242355Z 33000KT 19/04 A3007 RMK A01 T01920035  RH  035%=      5-min Rain = 0
KGO1 242356Z 05000KT 19/04 A3007 RMK A01 T01920036  RH  036%=      5-min Rain = 0
KGO1 242357Z 04000KT 19/03 A3007 RMK A01 T01910034  RH  035%=      5-min Rain = 0
KGO1 242358Z 05002KT 19/04 A3007 RMK A01 T01910037  RH  036%=      5-min Rain = 0
KGO1 242359Z 04003KT 19/04 A3007 RMK A01 T01900035  RH  036%=      5-min Rain = 0
KGO1 250000Z 04002KT 19/04 A3007 RMK A01 T01890035  RH  036%=      5-min Rain = 0
KGO1 250001Z 05002KT 19/04 A3007 RMK A01 T01880035  RH  036%=      5-min Rain = 0
KGO1 250002Z 06002KT 19/04 A3007 RMK A01 T01880038  RH  037%=      5-min Rain = 0
KGO1 250003Z 06003KT 19/04 A3007 RMK A01 T01870038  RH  037%=      5-min Rain = 0
KGO1 250004Z 07002KT 19/04 A3007 RMK A01 T01870038  RH  037%=      5-min Rain = 0
KGO1 250005Z 09002KT 19/04 A3007 RMK A01 T01870040  RH  038%=      5-min Rain = 0
KGO1 250006Z 10003KT 19/05 A3007 RMK A01 T01870047  RH  040%=      5-min Rain = 0
KGO1 250007Z 10003KT 19/04 A3007 RMK A01 T01850042  RH  039%=      5-min Rain = 0
KGO1 250008Z 11004KT 18/05 A3007 RMK A01 T01840048  RH  041%=      5-min Rain = 0
KGO1 250009Z 11004KT 18/04 A3007 RMK A01 T01830040  RH  039%=      5-min Rain = 0
KGO1 250010Z 10003KT 18/04 A3007 RMK A01 T01830044  RH  040%=      5-min Rain = 0
KGO1 250011Z 10003KT 18/05 A3007 RMK A01 T01820045  RH  040%=      5-min Rain = 0
KGO1 250012Z 11004KT 18/05 A3007 RMK A01 T01810046  RH  041%=      5-min Rain = 0
KGO1 250013Z 11003KT 18/04 A3007 RMK A01 T01810044  RH  040%=      5-min Rain = 0
KGO1 250014Z 11004KT 18/05 A3006 RMK A01 T01800046  RH  041%=      5-min Rain = 0
KGO1 250015Z 10004KT 18/05 A3006 RMK A01 T01800052  RH  043%=      5-min Rain = 0
KGO1 250016Z 10004KT 18/06 A3007 RMK A01 T01790057  RH  045%=      5-min Rain = 0
KGO1 250017Z 10004KT 18/07 A3007 RMK A01 T01780065  RH  047%=      5-min Rain = 0
KGO1 250018Z 10004KT 18/07 A3007 RMK A01 T01770065  RH  048%=      5-min Rain = 0
KGO1 250019Z 10003KT 18/05 A3007 RMK A01 T01760054  RH  044%=      5-min Rain = 0
KGO1 250020Z 10003KT 18/06 A3007 RMK A01 T01760057  RH  045%=      5-min Rain = 0
KGO1 250021Z 09003KT 18/06 A3007 RMK A01 T01760060  RH  046%=      5-min Rain = 0
KGO1 250022Z 09003KT 18/06 A3007 RMK A01 T01760058  RH  046%=      5-min Rain = 0
KGO1 250023Z 09002KT 18/06 A3007 RMK A01 T01760061  RH  047%=      5-min Rain = 0
KGO1 250024Z 09002KT 18/06 A3007 RMK A01 T01760061  RH  047%=      5-min Rain = 0
KGO1 250025Z 09002KT 18/06 A3007 RMK A01 T01760059  RH  046%=      5-min Rain = 0
KGO1 250026Z 09001KT 18/06 A3007 RMK A01 T01760056  RH  045%=      5-min Rain = 0
KGO1 250027Z 09001KT 18/06 A3007 RMK A01 T01760055  RH  045%=      5-min Rain = 0
KGO1 250028Z 08001KT 18/05 A3007 RMK A01 T01770054  RH  044%=      5-min Rain = 0
KGO1 250029Z 08002KT 18/05 A3007 RMK A01 T01760053  RH  044%=      5-min Rain = 0
KGO1 250030Z 08001KT 18/06 A3007 RMK A01 T01760057  RH  045%=      5-min Rain = 0
KGO1 250031Z 08001KT 18/06 A3007 RMK A01 T01760056  RH  045%=      5-min Rain = 0
KGO1 250032Z 08000KT 18/06 A3007 RMK A01 T01760058  RH  046%=      5-min Rain = 0
KGO1 250033Z 08001KT 18/06 A3007 RMK A01 T01760063  RH  047%=      5-min Rain = 0
KGO1 250034Z 08002KT 18/06 A3007 RMK A01 T01760063  RH  047%=      5-min Rain = 0
KGO1 250035Z 09002KT 18/06 A3007 RMK A01 T01760062  RH  047%=      5-min Rain = 0
KGO1 250036Z 09004KT 18/07 A3007 RMK A01 T01750065  RH  049%=      5-min Rain = 0
KGO1 250037Z 10004KT 17/07 A3007 RMK A01 T01740068  RH  050%=      5-min Rain = 0
KGO1 250038Z 08003KT 17/07 A3007 RMK A01 T01730072  RH  052%=      5-min Rain = 0
KGO1 250039Z 08004KT 17/07 A3007 RMK A01 T01710071  RH  052%=      5-min Rain = 0
KGO1 250040Z 09004KT 17/07 A3007 RMK A01 T01700069  RH  052%=      5-min Rain = 0
KGO1 250041Z 08004KT 17/07 A3007 RMK A01 T01680068  RH  052%=      5-min Rain = 0
KGO1 250042Z 08004KT 17/07 A3007 RMK A01 T01670065  RH  051%=      5-min Rain = 0
KGO1 250043Z 08004KT 17/06 A3007 RMK A01 T01650064  RH  051%=      5-min Rain = 0
KGO1 250044Z 08004KT 17/06 A3007 RMK A01 T01650062  RH  051%=      5-min Rain = 0
KGO1 250045Z 08004KT 16/06 A3007 RMK A01 T01640062  RH  051%=      5-min Rain = 0
KGO1 250046Z 08005KT 16/06 A3007 RMK A01 T01640061  RH  050%=      5-min Rain = 0
KGO1 250047Z 08005KT 16/06 A3007 RMK A01 T01630063  RH  052%=      5-min Rain = 0
KGO1 250048Z 07004KT 16/07 A3007 RMK A01 T01620065  RH  052%=      5-min Rain = 0
KGO1 250049Z 07004KT 16/07 A3007 RMK A01 T01610065  RH  053%=      5-min Rain = 0
KGO1 250050Z 07004KT 16/07 A3007 RMK A01 T01600066  RH  054%=      5-min Rain = 0
KGO1 250051Z 07004KT 16/07 A3007 RMK A01 T01590066  RH  054%=      5-min Rain = 0
KGO1 250052Z 07004KT 16/07 A3007 RMK A01 T01580065  RH  054%=      5-min Rain = 0
KGO1 250053Z 07004KT 16/07 A3007 RMK A01 T01570065  RH  054%=      5-min Rain = 0
KGO1 250054Z 07005KT 16/06 A3007 RMK A01 T01560063  RH  054%=      5-min Rain = 0
KGO1 250055Z 07005KT 16/06 A3007 RMK A01 T01560063  RH  054%=      5-min Rain = 0
KGO1 250056Z 07005KT 16/06 A3007 RMK A01 T01550061  RH  053%=      5-min Rain = 0
KGO1 250057Z 07005KT 16/06 A3007 RMK A01 T01550060  RH  053%=      5-min Rain = 0
KGO1 250058Z 08005KT 15/06 A3007 RMK A01 T01540060  RH  053%=      5-min Rain = 0
KGO1 250059Z 08006KT 15/06 A3007 RMK A01 T01530062  RH  054%=      5-min Rain = 0
KGO1 250100Z 08005KT 15/06 A3007 RMK A01 T01520061  RH  055%=      5-min Rain = 0
KGO1 250101Z 08005KT 15/06 A3007 RMK A01 T01510060  RH  054%=      5-min Rain = 0
KGO1 250102Z 07005KT 15/06 A3007 RMK A01 T01510060  RH  055%=      5-min Rain = 0
KGO1 250103Z 08005KT 15/06 A3007 RMK A01 T01520059  RH  054%=      5-min Rain = 0
KGO1 250104Z 08005KT 15/06 A3007 RMK A01 T01520058  RH  053%=      5-min Rain = 0
KGO1 250105Z 07005KT 15/06 A3007 RMK A01 T01530060  RH  054%=      5-min Rain = 0
KGO1 250106Z 07005KT 15/06 A3007 RMK A01 T01530061  RH  054%=      5-min Rain = 0
KGO1 250107Z 07006KT 15/06 A3007 RMK A01 T01520062  RH  055%=      5-min Rain = 0
KGO1 250108Z 08006KT 15/06 A3007 RMK A01 T01510061  RH  055%=      5-min Rain = 0
KGO1 250109Z 08006KT 15/06 A3007 RMK A01 T01510061  RH  055%=      5-min Rain = 0
KGO1 250110Z 08007KT 15/06 A3007 RMK A01 T01500060  RH  055%=      5-min Rain = 0
KGO1 250111Z 08007KT 15/06 A3007 RMK A01 T01500060  RH  055%=      5-min Rain = 0
KGO1 250112Z 08007KT 15/06 A3007 RMK A01 T01500061  RH  055%=      5-min Rain = 0
KGO1 250113Z 08007KT 15/06 A3007 RMK A01 T01490064  RH  057%=      5-min Rain = 0
KGO1 250114Z 08007KT 15/07 A3007 RMK A01 T01480065  RH  057%=      5-min Rain = 0
KGO1 250115Z 08006KT 15/06 A3007 RMK A01 T01470064  RH  057%=      5-min Rain = 0
KGO1 250116Z 08006KT 15/06 A3007 RMK A01 T01470064  RH  057%=      5-min Rain = 0
KGO1 250117Z 08006KT 15/06 A3007 RMK A01 T01460064  RH  058%=      5-min Rain = 0
KGO1 250118Z 08006KT 15/06 A3007 RMK A01 T01450063  RH  058%=      5-min Rain = 0
KGO1 250119Z 07005KT 15/06 A3007 RMK A01 T01450063  RH  058%=      5-min Rain = 0
KGO1 250120Z 07006KT 15/06 A3008 RMK A01 T01450062  RH  057%=      5-min Rain = 0
KGO1 250121Z 08007KT 15/06 A3008 RMK A01 T01450062  RH  057%=      5-min Rain = 0
KGO1 250122Z 08007KT 15/06 A3008 RMK A01 T01450062  RH  057%=      5-min Rain = 0
KGO1 250123Z 07007KT 15/06 A3008 RMK A01 T01460062  RH  057%=      5-min Rain = 0
KGO1 250124Z 08007KT 15/06 A3008 RMK A01 T01450062  RH  057%=      5-min Rain = 0
KGO1 250125Z 07006KT 15/06 A3008 RMK A01 T01450062  RH  058%=      5-min Rain = 0
KGO1 250126Z 06006KT 14/06 A3008 RMK A01 T01440063  RH  058%=      5-min Rain = 0
KGO1 250127Z 05006KT 14/07 A3008 RMK A01 T01420065  RH  060%=      5-min Rain = 0
KGO1 250128Z 05007KT 14/07 A3008 RMK A01 T01390068  RH  062%=      5-min Rain = 0
KGO1 250129Z 06007KT 14/07 A3008 RMK A01 T01380067  RH  062%=      5-min Rain = 0
KGO1 250130Z 06007KT 14/07 A3008 RMK A01 T01360066  RH  062%=      5-min Rain = 0
KGO1 250131Z 06008KT 14/07 A3008 RMK A01 T01360066  RH  063%=      5-min Rain = 0
KGO1 250132Z 06008KT 14/06 A3008 RMK A01 T01350063  RH  062%=      5-min Rain = 0
KGO1 250133Z 06008KT 14/06 A3008 RMK A01 T01350063  RH  062%=      5-min Rain = 0
KGO1 250134Z 06008KT 14/06 A3008 RMK A01 T01350061  RH  061%=      5-min Rain = 0
KGO1 250135Z 06007KT 14/06 A3008 RMK A01 T01350061  RH  061%=      5-min Rain = 0
KGO1 250136Z 06007KT 14/06 A3008 RMK A01 T01350061  RH  061%=      5-min Rain = 0
KGO1 250137Z 06007KT 14/06 A3008 RMK A01 T01350060  RH  060%=      5-min Rain = 0
KGO1 250138Z 06007KT 14/06 A3008 RMK A01 T01350059  RH  060%=      5-min Rain = 0
KGO1 250139Z 06007KT 14/06 A3008 RMK A01 T01360060  RH  060%=      5-min Rain = 0
KGO1 250140Z 06008KT 14/06 A3008 RMK A01 T01360060  RH  060%=      5-min Rain = 0
KGO1 250141Z 06008KT 14/06 A3008 RMK A01 T01350060  RH  060%=      5-min Rain = 0
KGO1 250142Z 07007KT 13/06 A3008 RMK A01 T01340060  RH  061%=      5-min Rain = 0
KGO1 250143Z 07008KT 13/06 A3008 RMK A01 T01340060  RH  061%=      5-min Rain = 0
KGO1 250144Z 07008KT 13/06 A3008 RMK A01 T01330059  RH  061%=      5-min Rain = 0
KGO1 250145Z 07008KT 13/06 A3008 RMK A01 T01340057  RH  059%=      5-min Rain = 0
KGO1 250146Z 07008KT 14/06 A3008 RMK A01 T01360057  RH  059%=      5-min Rain = 0
KGO1 250147Z 07008KT 14/06 A3008 RMK A01 T01370058  RH  059%=      5-min Rain = 0
KGO1 250148Z 07008KT 14/06 A3008 RMK A01 T01370058  RH  059%=      5-min Rain = 0
KGO1 250149Z 07007KT 14/06 A3008 RMK A01 T01370058  RH  059%=      5-min Rain = 0
KGO1 250150Z 07007KT 14/06 A3008 RMK A01 T01360058  RH  059%=      5-min Rain = 0
KGO1 250151Z 07008KT 14/06 A3008 RMK A01 T01360057  RH  059%=      5-min Rain = 0
KGO1 250152Z 07006KT 14/06 A3008 RMK A01 T01360058  RH  059%=      5-min Rain = 0
KGO1 250153Z 07007KT 14/06 A3008 RMK A01 T01350057  RH  059%=      5-min Rain = 0
KGO1 250154Z 07007KT 14/06 A3008 RMK A01 T01360058  RH  059%=      5-min Rain = 0
KGO1 250155Z 07007KT 14/06 A3008 RMK A01 T01360058  RH  059%=      5-min Rain = 0
KGO1 250156Z 07008KT 14/06 A3008 RMK A01 T01360058  RH  059%=      5-min Rain = 0
KGO1 250157Z 07007KT 14/06 A3008 RMK A01 T01360058  RH  059%=      5-min Rain = 0
KGO1 250158Z 07007KT 14/06 A3008 RMK A01 T01350058  RH  060%=      5-min Rain = 0
KGO1 250159Z 07008KT 14/06 A3008 RMK A01 T01350058  RH  060%=      5-min Rain = 0
KGO1 250200Z 07008KT 14/06 A3008 RMK A01 T01350059  RH  060%=      5-min Rain = 0
KGO1 250201Z 08007KT 14/06 A3008 RMK A01 T01350059  RH  060%=      5-min Rain = 0
KGO1 250202Z 07007KT 13/06 A3008 RMK A01 T01340060  RH  061%=      5-min Rain = 0
KGO1 250203Z 07007KT 13/06 A3008 RMK A01 T01340059  RH  060%=      5-min Rain = 0
KGO1 250204Z 07007KT 13/06 A3008 RMK A01 T01330058  RH  061%=      5-min Rain = 0
KGO1 250205Z 07007KT 13/06 A3008 RMK A01 T01320058  RH  061%=      5-min Rain = 0
KGO1 250206Z 07007KT 13/06 A3008 RMK A01 T01310057  RH  061%=      5-min Rain = 0
KGO1 250207Z 07007KT 13/06 A3008 RMK A01 T01310056  RH  061%=      5-min Rain = 0
KGO1 250208Z 07007KT 13/06 A3008 RMK A01 T01310056  RH  060%=      5-min Rain = 0
KGO1 250209Z 07006KT 13/06 A3008 RMK A01 T01310055  RH  060%=      5-min Rain = 0
KGO1 250210Z 07007KT 13/06 A3008 RMK A01 T01310056  RH  060%=      5-min Rain = 0
KGO1 250211Z 07007KT 13/06 A3008 RMK A01 T01310056  RH  060%=      5-min Rain = 0
KGO1 250212Z 07008KT 13/06 A3008 RMK A01 T01300056  RH  061%=      5-min Rain = 0
KGO1 250213Z 08008KT 13/06 A3008 RMK A01 T01300056  RH  061%=      5-min Rain = 0
KGO1 250214Z 08008KT 13/06 A3008 RMK A01 T01290055  RH  061%=      5-min Rain = 0
KGO1 250215Z 08007KT 13/06 A3008 RMK A01 T01290056  RH  061%=      5-min Rain = 0
KGO1 250216Z 08007KT 13/06 A3009 RMK A01 T01290057  RH  061%=      5-min Rain = 0
KGO1 250217Z 08007KT 13/06 A3009 RMK A01 T01280057  RH  062%=      5-min Rain = 0
KGO1 250218Z 07007KT 13/06 A3009 RMK A01 T01270057  RH  062%=      5-min Rain = 0
KGO1 250219Z 07006KT 13/06 A3009 RMK A01 T01280058  RH  063%=      5-min Rain = 0
KGO1 250220Z 08007KT 13/06 A3009 RMK A01 T01260058  RH  063%=      5-min Rain = 0
KGO1 250221Z 08007KT 13/06 A3009 RMK A01 T01260058  RH  063%=      5-min Rain = 0
KGO1 250222Z 08007KT 12/06 A3009 RMK A01 T01240058  RH  064%=      5-min Rain = 0
KGO1 250223Z 07008KT 12/06 A3009 RMK A01 T01240059  RH  065%=      5-min Rain = 0
KGO1 250224Z 07008KT 12/06 A3009 RMK A01 T01230058  RH  064%=      5-min Rain = 0
KGO1 250225Z 07008KT 12/06 A3009 RMK A01 T01230057  RH  064%=      5-min Rain = 0
KGO1 250226Z 07008KT 12/06 A3009 RMK A01 T01230058  RH  064%=      5-min Rain = 0
KGO1 250227Z 07007KT 12/06 A3009 RMK A01 T01230057  RH  064%=      5-min Rain = 0
KGO1 250228Z 08008KT 12/06 A3009 RMK A01 T01230057  RH  064%=      5-min Rain = 0
KGO1 250229Z 08008KT 12/06 A3009 RMK A01 T01230057  RH  064%=      5-min Rain = 0
KGO1 250230Z 08008KT 12/06 A3009 RMK A01 T01230057  RH  064%=      5-min Rain = 0
KGO1 250231Z 08007KT 12/06 A3009 RMK A01 T01230057  RH  064%=      5-min Rain = 0
KGO1 250232Z 08007KT 12/06 A3009 RMK A01 T01220057  RH  065%=      5-min Rain = 0
KGO1 250233Z 08007KT 12/06 A3009 RMK A01 T01210058  RH  065%=      5-min Rain = 0
KGO1 250234Z 08007KT 12/06 A3009 RMK A01 T01200058  RH  066%=      5-min Rain = 0
KGO1 250235Z 08007KT 12/06 A3009 RMK A01 T01190058  RH  066%=      5-min Rain = 0
KGO1 250236Z 08007KT 12/06 A3009 RMK A01 T01190059  RH  067%=      5-min Rain = 0
KGO1 250237Z 08007KT 12/06 A3009 RMK A01 T01180058  RH  067%=      5-min Rain = 0
KGO1 250238Z 08007KT 12/06 A3009 RMK A01 T01170057  RH  067%=      5-min Rain = 0
KGO1 250239Z 08006KT 12/06 A3009 RMK A01 T01180058  RH  067%=      5-min Rain = 0
KGO1 250240Z 08007KT 12/06 A3009 RMK A01 T01180058  RH  067%=      5-min Rain = 0
KGO1 250241Z 08007KT 12/06 A3009 RMK A01 T01180058  RH  067%=      5-min Rain = 0
KGO1 250242Z 08007KT 12/06 A3009 RMK A01 T01180058  RH  067%=      5-min Rain = 0
KGO1 250243Z 09008KT 12/06 A3009 RMK A01 T01180058  RH  067%=      5-min Rain = 0
KGO1 250244Z 09008KT 12/06 A301 RMK A01 T01170058  RH  067%=      5-min Rain = 0
KGO1 250245Z 08008KT 12/06 A301 RMK A01 T01170057  RH  067%=      5-min Rain = 0
KGO1 250246Z 09008KT 12/06 A301 RMK A01 T01170058  RH  067%=      5-min Rain = 0
KGO1 250247Z 08008KT 12/06 A301 RMK A01 T01170058  RH  067%=      5-min Rain = 0
KGO1 250248Z 08007KT 12/06 A301 RMK A01 T01170058  RH  067%=      5-min Rain = 0
KGO1 250249Z 08007KT 12/06 A301 RMK A01 T01170057  RH  067%=      5-min Rain = 0
KGO1 250250Z 08007KT 12/06 A301 RMK A01 T01170057  RH  067%=      5-min Rain = 0
KGO1 250251Z 08007KT 12/06 A301 RMK A01 T01160056  RH  067%=      5-min Rain = 0
KGO1 250252Z 08007KT 12/06 A301 RMK A01 T01160057  RH  067%=      5-min Rain = 0
KGO1 250253Z 08007KT 12/06 A301 RMK A01 T01160057  RH  067%=      5-min Rain = 0
KGO1 250254Z 08007KT 12/06 A301 RMK A01 T01160057  RH  067%=      5-min Rain = 0
KGO1 250255Z 08007KT 12/06 A301 RMK A01 T01150057  RH  068%=      5-min Rain = 0
KGO1 250256Z 08007KT 12/06 A301 RMK A01 T01150056  RH  067%=      5-min Rain = 0
KGO1 250257Z 08007KT 12/06 A301 RMK A01 T01150055  RH  066%=      5-min Rain = 0
KGO1 250258Z 08007KT 12/06 A301 RMK A01 T01160055  RH  066%=      5-min Rain = 0
KGO1 250259Z 08007KT 12/06 A301 RMK A01 T01170055  RH  066%=      5-min Rain = 0
KGO1 250300Z 08007KT 12/06 A301 RMK A01 T01170055  RH  066%=      5-min Rain = 0
KGO1 250301Z 08007KT 12/06 A3011 RMK A01 T01170055  RH  066%=      5-min Rain = 0
KGO1 250302Z 08007KT 12/06 A3011 RMK A01 T01160056  RH  067%=      5-min Rain = 0
KGO1 250303Z 08007KT 12/06 A3011 RMK A01 T01150055  RH  066%=      5-min Rain = 0
KGO1 250304Z 08007KT 12/06 A3011 RMK A01 T01150055  RH  067%=      5-min Rain = 0
KGO1 250305Z 08007KT 12/06 A3011 RMK A01 T01150055  RH  066%=      5-min Rain = 0
KGO1 250306Z 08007KT 12/05 A3011 RMK A01 T01160054  RH  066%=      5-min Rain = 0
KGO1 250307Z 08007KT 12/05 A3011 RMK A01 T01160054  RH  066%=      5-min Rain = 0
KGO1 250308Z 08007KT 12/05 A3011 RMK A01 T01170054  RH  065%=      5-min Rain = 0
KGO1 250309Z 08007KT 12/05 A3011 RMK A01 T01170054  RH  065%=      5-min Rain = 0
KGO1 250310Z 08007KT 12/06 A3011 RMK A01 T01170055  RH  065%=      5-min Rain = 0
KGO1 250311Z 08007KT 12/05 A3011 RMK A01 T01170054  RH  065%=      5-min Rain = 0
KGO1 250312Z 08007KT 12/05 A3011 RMK A01 T01170054  RH  065%=      5-min Rain = 0
KGO1 250313Z 08008KT 12/05 A3011 RMK A01 T01170054  RH  065%=      5-min Rain = 0
KGO1 250314Z 08007KT 12/05 A3011 RMK A01 T01160054  RH  066%=      5-min Rain = 0
KGO1 250315Z 08007KT 12/06 A3011 RMK A01 T01160055  RH  066%=      5-min Rain = 0
KGO1 250316Z 08007KT 12/06 A3011 RMK A01 T01150055  RH  066%=      5-min Rain = 0
KGO1 250317Z 08008KT 12/06 A3011 RMK A01 T01150056  RH  067%=      5-min Rain = 0
KGO1 250318Z 08008KT 11/06 A3011 RMK A01 T01140055  RH  067%=      5-min Rain = 0
KGO1 250319Z 08007KT 11/06 A3011 RMK A01 T01140055  RH  067%=      5-min Rain = 0
KGO1 250320Z 08008KT 11/06 A3011 RMK A01 T01140055  RH  067%=      5-min Rain = 0
KGO1 250321Z 08008KT 11/06 A3011 RMK A01 T01140055  RH  067%=      5-min Rain = 0
KGO1 250322Z 08008KT 11/06 A3011 RMK A01 T01140055  RH  067%=      5-min Rain = 0
KGO1 250323Z 08007KT 11/06 A3011 RMK A01 T01130055  RH  067%=      5-min Rain = 0
KGO1 250324Z 08007KT 11/06 A3011 RMK A01 T01120055  RH  068%=      5-min Rain = 0
KGO1 250325Z 08006KT 11/06 A3011 RMK A01 T01110055  RH  068%=      5-min Rain = 0
KGO1 250326Z 08005KT 11/06 A3011 RMK A01 T01110055  RH  068%=      5-min Rain = 0
KGO1 250327Z 08005KT 11/05 A3011 RMK A01 T01110054  RH  068%=      5-min Rain = 0
KGO1 250328Z 07006KT 11/05 A3011 RMK A01 T01110054  RH  068%=      5-min Rain = 0
KGO1 250329Z 07006KT 11/05 A3011 RMK A01 T01110054  RH  068%=      5-min Rain = 0
KGO1 250330Z 07007KT 11/06 A3011 RMK A01 T01110055  RH  068%=      5-min Rain = 0
KGO1 250331Z 07007KT 11/05 A3012 RMK A01 T01100054  RH  068%=      5-min Rain = 0
KGO1 250332Z 07007KT 11/05 A3012 RMK A01 T01110053  RH  068%=      5-min Rain = 0
KGO1 250333Z 07007KT 11/05 A3012 RMK A01 T01120052  RH  067%=      5-min Rain = 0
KGO1 250334Z 07007KT 11/05 A3012 RMK A01 T01130052  RH  066%=      5-min Rain = 0
KGO1 250335Z 07006KT 11/05 A3012 RMK A01 T01140052  RH  065%=      5-min Rain = 0
KGO1 250336Z 07006KT 12/05 A3012 RMK A01 T01150051  RH  065%=      5-min Rain = 0
KGO1 250337Z 07005KT 12/05 A3012 RMK A01 T01160051  RH  064%=      5-min Rain = 0
KGO1 250338Z 08006KT 12/05 A3012 RMK A01 T01160051  RH  065%=      5-min Rain = 0
KGO1 250339Z 08005KT 12/05 A3012 RMK A01 T01150052  RH  065%=      5-min Rain = 0
KGO1 250340Z 08006KT 12/05 A3012 RMK A01 T01150052  RH  065%=      5-min Rain = 0
KGO1 250341Z 07005KT 11/05 A3012 RMK A01 T01140051  RH  066%=      5-min Rain = 0
KGO1 250342Z 07004KT 11/05 A3012 RMK A01 T01130052  RH  066%=      5-min Rain = 0
KGO1 250343Z 07004KT 11/05 A3012 RMK A01 T01120052  RH  066%=      5-min Rain = 0
KGO1 250344Z 07005KT 11/05 A3012 RMK A01 T01110052  RH  067%=      5-min Rain = 0
KGO1 250345Z 07005KT 11/05 A3012 RMK A01 T01110052  RH  067%=      5-min Rain = 0
KGO1 250346Z 07005KT 11/05 A3012 RMK A01 T01110052  RH  067%=      5-min Rain = 0
KGO1 250347Z 07004KT 11/05 A3013 RMK A01 T01110052  RH  067%=      5-min Rain = 0
KGO1 250348Z 07004KT 11/05 A3013 RMK A01 T01100053  RH  068%=      5-min Rain = 0
KGO1 250349Z 07004KT 11/05 A3013 RMK A01 T01090052  RH  068%=      5-min Rain = 0
KGO1 250350Z 07001KT 11/05 A3013 RMK A01 T01090053  RH  068%=      5-min Rain = 0
KGO1 250351Z 00000KT 11/06 A3013 RMK A01 T01070059  RH  072%=      5-min Rain = 0
KGO1 250352Z 00000KT 11/06 A3013 RMK A01 T01060060  RH  073%=      5-min Rain = 0
KGO1 250353Z 00000KT 11/06 A3013 RMK A01 T01050059  RH  073%=      5-min Rain = 0
KGO1 250354Z 00000KT 11/06 A3013 RMK A01 T01050057  RH  072%=      5-min Rain = 0
KGO1 250355Z 00000KT 11/06 A3013 RMK A01 T01050056  RH  072%=      5-min Rain = 0
KGO1 250356Z 00000KT 10/06 A3014 RMK A01 T01040056  RH  072%=      5-min Rain = 0
KGO1 250357Z 00000KT 10/06 A3014 RMK A01 T01040055  RH  072%=      5-min Rain = 0
KGO1 250358Z 00000KT 10/05 A3014 RMK A01 T01040054  RH  071%=      5-min Rain = 0
KGO1 250359Z 15000KT 10/05 A3014 RMK A01 T01040052  RH  071%=      5-min Rain = 0
KGO1 250400Z 17000KT 10/05 A3014 RMK A01 T01040052  RH  070%=      5-min Rain = 0
KGO1 250401Z 19000KT 11/05 A3014 RMK A01 T01050053  RH  070%=      5-min Rain = 0
KGO1 250402Z 13001KT 11/05 A3014 RMK A01 T01060052  RH  069%=      5-min Rain = 0
KGO1 250403Z 13001KT 11/05 A3014 RMK A01 T01060051  RH  069%=      5-min Rain = 0
KGO1 250404Z 13000KT 11/05 A3014 RMK A01 T01060051  RH  069%=      5-min Rain = 0
KGO1 250405Z 13000KT 11/05 A3014 RMK A01 T01060052  RH  069%=      5-min Rain = 0
KGO1 250406Z 00000KT 11/05 A3014 RMK A01 T01060052  RH  069%=      5-min Rain = 0
KGO1 250407Z 00000KT 11/05 A3014 RMK A01 T01050052  RH  070%=      5-min Rain = 0
KGO1 250408Z 11000KT 11/05 A3014 RMK A01 T01050053  RH  070%=      5-min Rain = 0
KGO1 250409Z 00000KT 10/05 A3014 RMK A01 T01040052  RH  070%=      5-min Rain = 0
KGO1 250410Z 05000KT 10/05 A3014 RMK A01 T01040052  RH  070%=      5-min Rain = 0
KGO1 250411Z 06001KT 10/05 A3014 RMK A01 T01040051  RH  070%=      5-min Rain = 0
KGO1 250412Z 03001KT 10/05 A3014 RMK A01 T01040051  RH  069%=      5-min Rain = 0
KGO1 250413Z 02003KT 11/05 A3014 RMK A01 T01060054  RH  070%=      5-min Rain = 0
KGO1 250414Z 03003KT 11/07 A3014 RMK A01 T01050066  RH  077%=      5-min Rain = 0
KGO1 250415Z 03004KT 10/06 A3014 RMK A01 T01030060  RH  075%=      5-min Rain = 0
KGO1 250416Z 02004KT 10/06 A3014 RMK A01 T01020055  RH  072%=      5-min Rain = 0
KGO1 250417Z 03004KT 10/06 A3014 RMK A01 T01030055  RH  072%=      5-min Rain = 0
KGO1 250418Z 03004KT 10/06 A3014 RMK A01 T01040059  RH  074%=      5-min Rain = 0
KGO1 250419Z 03004KT 10/06 A3014 RMK A01 T01040060  RH  075%=      5-min Rain = 0
KGO1 250420Z 03004KT 10/06 A3014 RMK A01 T01040059  RH  074%=      5-min Rain = 0
KGO1 250421Z 03004KT 10/06 A3014 RMK A01 T01030059  RH  074%=      5-min Rain = 0
KGO1 250422Z 03004KT 10/06 A3014 RMK A01 T01010059  RH  075%=      5-min Rain = 0
KGO1 250423Z 02004KT 10/06 A3014 RMK A01 T01000061  RH  077%=      5-min Rain = 0
KGO1 250424Z 03004KT 10/06 A3014 RMK A01 T00980062  RH  078%=      5-min Rain = 0
KGO1 250425Z 03004KT 10/06 A3014 RMK A01 T00980062  RH  078%=      5-min Rain = 0
KGO1 250426Z 03004KT 10/06 A3014 RMK A01 T00980061  RH  078%=      5-min Rain = 0
KGO1 250427Z 03004KT 10/06 A3014 RMK A01 T00980058  RH  076%=      5-min Rain = 0
KGO1 250428Z 03004KT 10/06 A3014 RMK A01 T00990056  RH  075%=      5-min Rain = 0
KGO1 250429Z 03004KT 10/06 A3014 RMK A01 T01000056  RH  074%=      5-min Rain = 0
KGO1 250430Z 03005KT 10/06 A3014 RMK A01 T01000057  RH  075%=      5-min Rain = 0
KGO1 250431Z 03005KT 10/06 A3014 RMK A01 T01000056  RH  074%=      5-min Rain = 0
KGO1 250432Z 02004KT 10/06 A3014 RMK A01 T01010057  RH  074%=      5-min Rain = 0
KGO1 250433Z 03005KT 10/06 A3014 RMK A01 T01010058  RH  075%=      5-min Rain = 0
KGO1 250434Z 02005KT 10/06 A3014 RMK A01 T01010056  RH  074%=      5-min Rain = 0
KGO1 250435Z 02005KT 10/06 A3014 RMK A01 T01010057  RH  074%=      5-min Rain = 0
KGO1 250436Z 02004KT 10/06 A3014 RMK A01 T01010058  RH  075%=      5-min Rain = 0
KGO1 250437Z 02004KT 10/06 A3015 RMK A01 T01010058  RH  075%=      5-min Rain = 0
KGO1 250438Z 02005KT 10/06 A3015 RMK A01 T01000059  RH  075%=      5-min Rain = 0
KGO1 250439Z 02005KT 10/06 A3015 RMK A01 T01000060  RH  076%=      5-min Rain = 0
KGO1 250440Z 01005KT 10/06 A3014 RMK A01 T01000059  RH  076%=      5-min Rain = 0
KGO1 250441Z 01005KT 10/06 A3014 RMK A01 T01000059  RH  075%=      5-min Rain = 0
KGO1 250442Z 02005KT 10/06 A3014 RMK A01 T01000060  RH  076%=      5-min Rain = 0
KGO1 250443Z 02005KT 10/06 A3014 RMK A01 T00990060  RH  077%=      5-min Rain = 0
KGO1 250444Z 02005KT 10/06 A3014 RMK A01 T00990060  RH  077%=      5-min Rain = 0
KGO1 250445Z 01004KT 10/06 A3014 RMK A01 T00990057  RH  075%=      5-min Rain = 0
KGO1 250446Z 00003KT 10/06 A3014 RMK A01 T01010058  RH  075%=      5-min Rain = 0
KGO1 250447Z 36003KT 10/06 A3014 RMK A01 T01010056  RH  074%=      5-min Rain = 0
KGO1 250448Z 00003KT 10/05 A3014 RMK A01 T01000054  RH  073%=      5-min Rain = 0
KGO1 250449Z 00003KT 10/05 A3014 RMK A01 T00990052  RH  073%=      5-min Rain = 0
KGO1 250450Z 00002KT 10/05 A3014 RMK A01 T00970050  RH  073%=      5-min Rain = 0
KGO1 250451Z 00003KT 10/05 A3014 RMK A01 T00950049  RH  073%=      5-min Rain = 0
KGO1 250452Z 00003KT 09/05 A3015 RMK A01 T00940049  RH  074%=      5-min Rain = 0
KGO1 250453Z 00003KT 09/05 A3015 RMK A01 T00920049  RH  074%=      5-min Rain = 0
KGO1 250454Z 36004KT 09/05 A3015 RMK A01 T00910049  RH  075%=      5-min Rain = 0
KGO1 250455Z 35004KT 09/05 A3015 RMK A01 T00900049  RH  075%=      5-min Rain = 0
KGO1 250456Z 00006KT 09/05 A3015 RMK A01 T00870048  RH  076%=      5-min Rain = 0
KGO1 250457Z 01009KT 09/05 A3015 RMK A01 T00860054  RH  080%=      5-min Rain = 0
KGO1 250458Z 00008KT 09/05 A3015 RMK A01 T00870054  RH  079%=      5-min Rain = 0
KGO1 250459Z 36007KT 09/05 A3015 RMK A01 T00900054  RH  078%=      5-min Rain = 0

Page generated in 0.0842 seconds.